<?xml version="1.0" encoding="UTF-8" standalone="no" ?>
<gpx xmlns="http://www.topografix.com/GPX/1/1" xmlns:xsi="http://www.w3.org/2001/XMLSchema-instance" xsi:schemaLocation="http://www.topografix.com/GPX/1/1 http://www.topografix.com/GPX/1/1/gpx.xsd" version="1.1" creator="VisuGPX - https://www.visugpx.com">
  <metadata>
    <name>CASQUE DU LHÉRIS_BOUCLE_ DEPUIS CAMPAN.</name>
    <desc><![CDATA[test]]></desc>
  </metadata>
  <trk>
    <name><![CDATA[CASQUE DU LHÉRIS_BOUCLE_ DEPUIS CAMPAN.]]></name>
    <trkseg>
      <trkpt lat="43.01795" lon="0.17828">
        <ele>651</ele>
        <time>2019-05-31T08:23:35Z</time>
      </trkpt>
      <trkpt lat="43.01773" lon="0.17838">
        <ele>651</ele>
        <time>2019-05-31T08:23:56Z</time>
      </trkpt>
      <trkpt lat="43.01753" lon="0.17855">
        <ele>652</ele>
        <time>2019-05-31T08:24:16Z</time>
      </trkpt>
      <trkpt lat="43.01733" lon="0.17869">
        <ele>653</ele>
        <time>2019-05-31T08:24:34Z</time>
      </trkpt>
      <trkpt lat="43.01716" lon="0.17889">
        <ele>653</ele>
        <time>2019-05-31T08:24:59Z</time>
      </trkpt>
      <trkpt lat="43.017" lon="0.17913">
        <ele>654</ele>
        <time>2019-05-31T08:25:21Z</time>
      </trkpt>
      <trkpt lat="43.01689" lon="0.17939">
        <ele>653</ele>
        <time>2019-05-31T08:25:50Z</time>
      </trkpt>
      <trkpt lat="43.01671" lon="0.17961">
        <ele>653</ele>
        <time>2019-05-31T08:26:09Z</time>
      </trkpt>
      <trkpt lat="43.01684" lon="0.17987">
        <ele>651</ele>
        <time>2019-05-31T08:26:33Z</time>
      </trkpt>
      <trkpt lat="43.01704" lon="0.18002">
        <ele>652</ele>
        <time>2019-05-31T08:26:55Z</time>
      </trkpt>
      <trkpt lat="43.01727" lon="0.18008">
        <ele>659</ele>
        <time>2019-05-31T08:28:09Z</time>
      </trkpt>
      <trkpt lat="43.01749" lon="0.18004">
        <ele>664</ele>
        <time>2019-05-31T08:28:27Z</time>
      </trkpt>
      <trkpt lat="43.01771" lon="0.17998">
        <ele>666</ele>
        <time>2019-05-31T08:28:47Z</time>
      </trkpt>
      <trkpt lat="43.01793" lon="0.17991">
        <ele>669</ele>
        <time>2019-05-31T08:29:09Z</time>
      </trkpt>
      <trkpt lat="43.01816" lon="0.17987">
        <ele>673</ele>
        <time>2019-05-31T08:29:29Z</time>
      </trkpt>
      <trkpt lat="43.01838" lon="0.1798">
        <ele>675</ele>
        <time>2019-05-31T08:29:54Z</time>
      </trkpt>
      <trkpt lat="43.01861" lon="0.17972">
        <ele>677</ele>
        <time>2019-05-31T08:30:17Z</time>
      </trkpt>
      <trkpt lat="43.01882" lon="0.17961">
        <ele>676</ele>
        <time>2019-05-31T08:30:38Z</time>
      </trkpt>
      <trkpt lat="43.01902" lon="0.17944">
        <ele>673</ele>
        <time>2019-05-31T08:30:57Z</time>
      </trkpt>
      <trkpt lat="43.01925" lon="0.17939">
        <ele>677</ele>
        <time>2019-05-31T08:31:34Z</time>
      </trkpt>
      <trkpt lat="43.01927" lon="0.1797">
        <ele>691</ele>
        <time>2019-05-31T08:32:35Z</time>
      </trkpt>
      <trkpt lat="43.01909" lon="0.17989">
        <ele>695</ele>
        <time>2019-05-31T08:33:05Z</time>
      </trkpt>
      <trkpt lat="43.01926" lon="0.1801">
        <ele>707</ele>
        <time>2019-05-31T08:34:14Z</time>
      </trkpt>
      <trkpt lat="43.01949" lon="0.18007">
        <ele>711</ele>
        <time>2019-05-31T08:34:56Z</time>
      </trkpt>
      <trkpt lat="43.01972" lon="0.18008">
        <ele>717</ele>
        <time>2019-05-31T08:35:25Z</time>
      </trkpt>
      <trkpt lat="43.01996" lon="0.18008">
        <ele>720</ele>
        <time>2019-05-31T08:36:14Z</time>
      </trkpt>
      <trkpt lat="43.02018" lon="0.18">
        <ele>720</ele>
        <time>2019-05-31T08:36:40Z</time>
      </trkpt>
      <trkpt lat="43.02041" lon="0.17999">
        <ele>723</ele>
        <time>2019-05-31T08:37:08Z</time>
      </trkpt>
      <trkpt lat="43.02064" lon="0.17998">
        <ele>726</ele>
        <time>2019-05-31T08:37:36Z</time>
      </trkpt>
      <trkpt lat="43.02087" lon="0.18005">
        <ele>731</ele>
        <time>2019-05-31T08:38:01Z</time>
      </trkpt>
      <trkpt lat="43.02108" lon="0.18017">
        <ele>737</ele>
        <time>2019-05-31T08:38:31Z</time>
      </trkpt>
      <trkpt lat="43.02129" lon="0.1803">
        <ele>742</ele>
        <time>2019-05-31T08:38:59Z</time>
      </trkpt>
      <trkpt lat="43.02148" lon="0.1805">
        <ele>746</ele>
        <time>2019-05-31T08:39:30Z</time>
      </trkpt>
      <trkpt lat="43.02164" lon="0.18072">
        <ele>750</ele>
        <time>2019-05-31T08:40:07Z</time>
      </trkpt>
      <trkpt lat="43.0217" lon="0.18102">
        <ele>760</ele>
        <time>2019-05-31T08:40:36Z</time>
      </trkpt>
      <trkpt lat="43.02184" lon="0.18126">
        <ele>766</ele>
        <time>2019-05-31T08:41:11Z</time>
      </trkpt>
      <trkpt lat="43.02197" lon="0.18152">
        <ele>773</ele>
        <time>2019-05-31T08:41:47Z</time>
      </trkpt>
      <trkpt lat="43.02204" lon="0.18182">
        <ele>783</ele>
        <time>2019-05-31T08:42:21Z</time>
      </trkpt>
      <trkpt lat="43.02217" lon="0.18208">
        <ele>790</ele>
        <time>2019-05-31T08:42:50Z</time>
      </trkpt>
      <trkpt lat="43.02233" lon="0.18232">
        <ele>795</ele>
        <time>2019-05-31T08:43:16Z</time>
      </trkpt>
      <trkpt lat="43.02254" lon="0.18244">
        <ele>798</ele>
        <time>2019-05-31T08:43:45Z</time>
      </trkpt>
      <trkpt lat="43.02274" lon="0.1826">
        <ele>804</ele>
        <time>2019-05-31T08:44:23Z</time>
      </trkpt>
      <trkpt lat="43.0229" lon="0.18283">
        <ele>811</ele>
        <time>2019-05-31T08:44:52Z</time>
      </trkpt>
      <trkpt lat="43.0231" lon="0.18297">
        <ele>814</ele>
        <time>2019-05-31T08:45:23Z</time>
      </trkpt>
      <trkpt lat="43.02327" lon="0.1832">
        <ele>821</ele>
        <time>2019-05-31T08:46:07Z</time>
      </trkpt>
      <trkpt lat="43.02334" lon="0.18351">
        <ele>829</ele>
        <time>2019-05-31T08:46:49Z</time>
      </trkpt>
      <trkpt lat="43.02348" lon="0.18375">
        <ele>840</ele>
        <time>2019-05-31T08:47:41Z</time>
      </trkpt>
      <trkpt lat="43.02369" lon="0.18365">
        <ele>844</ele>
        <time>2019-05-31T08:49:31Z</time>
      </trkpt>
      <trkpt lat="43.02381" lon="0.18337">
        <ele>850</ele>
        <time>2019-05-31T08:50:09Z</time>
      </trkpt>
      <trkpt lat="43.02395" lon="0.18313">
        <ele>858</ele>
        <time>2019-05-31T08:51:46Z</time>
      </trkpt>
      <trkpt lat="43.02411" lon="0.1829">
        <ele>866</ele>
        <time>2019-05-31T08:52:22Z</time>
      </trkpt>
      <trkpt lat="43.02428" lon="0.18269">
        <ele>875</ele>
        <time>2019-05-31T08:53:12Z</time>
      </trkpt>
      <trkpt lat="43.02434" lon="0.18239">
        <ele>880</ele>
        <time>2019-05-31T08:53:43Z</time>
      </trkpt>
      <trkpt lat="43.02439" lon="0.18209">
        <ele>886</ele>
        <time>2019-05-31T08:54:14Z</time>
      </trkpt>
      <trkpt lat="43.02444" lon="0.18178">
        <ele>893</ele>
        <time>2019-05-31T08:55:40Z</time>
      </trkpt>
      <trkpt lat="43.02449" lon="0.18147">
        <ele>894</ele>
        <time>2019-05-31T08:56:08Z</time>
      </trkpt>
      <trkpt lat="43.02463" lon="0.18123">
        <ele>892</ele>
        <time>2019-05-31T08:56:57Z</time>
      </trkpt>
      <trkpt lat="43.02479" lon="0.18145">
        <ele>904</ele>
        <time>2019-05-31T08:57:53Z</time>
      </trkpt>
      <trkpt lat="43.02502" lon="0.18143">
        <ele>908</ele>
        <time>2019-05-31T08:58:24Z</time>
      </trkpt>
      <trkpt lat="43.02525" lon="0.18146">
        <ele>913</ele>
        <time>2019-05-31T08:58:52Z</time>
      </trkpt>
      <trkpt lat="43.02547" lon="0.18157">
        <ele>920</ele>
        <time>2019-05-31T08:59:25Z</time>
      </trkpt>
      <trkpt lat="43.0257" lon="0.18152">
        <ele>919</ele>
        <time>2019-05-31T08:59:53Z</time>
      </trkpt>
      <trkpt lat="43.02592" lon="0.1816">
        <ele>925</ele>
        <time>2019-05-31T09:00:34Z</time>
      </trkpt>
      <trkpt lat="43.02569" lon="0.18166">
        <ele>926</ele>
        <time>2019-05-31T09:02:20Z</time>
      </trkpt>
      <trkpt lat="43.0255" lon="0.18184">
        <ele>931</ele>
        <time>2019-05-31T09:02:52Z</time>
      </trkpt>
      <trkpt lat="43.02535" lon="0.18208">
        <ele>935</ele>
        <time>2019-05-31T09:03:22Z</time>
      </trkpt>
      <trkpt lat="43.02534" lon="0.1824">
        <ele>940</ele>
        <time>2019-05-31T09:04:24Z</time>
      </trkpt>
      <trkpt lat="43.02535" lon="0.18271">
        <ele>943</ele>
        <time>2019-05-31T09:04:53Z</time>
      </trkpt>
      <trkpt lat="43.02551" lon="0.183">
        <ele>952</ele>
        <time>2019-05-31T09:05:28Z</time>
      </trkpt>
      <trkpt lat="43.02573" lon="0.18291">
        <ele>961</ele>
        <time>2019-05-31T09:06:56Z</time>
      </trkpt>
      <trkpt lat="43.02572" lon="0.18322">
        <ele>965</ele>
        <time>2019-05-31T09:07:43Z</time>
      </trkpt>
      <trkpt lat="43.02573" lon="0.18354">
        <ele>969</ele>
        <time>2019-05-31T09:08:09Z</time>
      </trkpt>
      <trkpt lat="43.02575" lon="0.18384">
        <ele>975</ele>
        <time>2019-05-31T09:08:41Z</time>
      </trkpt>
      <trkpt lat="43.02577" lon="0.18415">
        <ele>982</ele>
        <time>2019-05-31T09:09:27Z</time>
      </trkpt>
      <trkpt lat="43.02577" lon="0.18447">
        <ele>988</ele>
        <time>2019-05-31T09:09:57Z</time>
      </trkpt>
      <trkpt lat="43.02579" lon="0.18477">
        <ele>995</ele>
        <time>2019-05-31T09:15:24Z</time>
      </trkpt>
      <trkpt lat="43.02575" lon="0.18508">
        <ele>999</ele>
        <time>2019-05-31T09:15:49Z</time>
      </trkpt>
      <trkpt lat="43.02574" lon="0.18539">
        <ele>1004</ele>
        <time>2019-05-31T09:16:21Z</time>
      </trkpt>
      <trkpt lat="43.02578" lon="0.1857">
        <ele>1011</ele>
        <time>2019-05-31T09:17:30Z</time>
      </trkpt>
      <trkpt lat="43.02574" lon="0.18601">
        <ele>1015</ele>
        <time>2019-05-31T09:17:58Z</time>
      </trkpt>
      <trkpt lat="43.02565" lon="0.1863">
        <ele>1020</ele>
        <time>2019-05-31T09:18:23Z</time>
      </trkpt>
      <trkpt lat="43.02552" lon="0.18656">
        <ele>1023</ele>
        <time>2019-05-31T09:18:51Z</time>
      </trkpt>
      <trkpt lat="43.02544" lon="0.18685">
        <ele>1028</ele>
        <time>2019-05-31T09:19:22Z</time>
      </trkpt>
      <trkpt lat="43.02538" lon="0.18715">
        <ele>1034</ele>
        <time>2019-05-31T09:19:51Z</time>
      </trkpt>
      <trkpt lat="43.02532" lon="0.18745">
        <ele>1041</ele>
        <time>2019-05-31T09:21:24Z</time>
      </trkpt>
      <trkpt lat="43.02525" lon="0.18774">
        <ele>1046</ele>
        <time>2019-05-31T09:21:48Z</time>
      </trkpt>
      <trkpt lat="43.02511" lon="0.18798">
        <ele>1048</ele>
        <time>2019-05-31T09:22:10Z</time>
      </trkpt>
      <trkpt lat="43.02497" lon="0.18824">
        <ele>1053</ele>
        <time>2019-05-31T09:22:39Z</time>
      </trkpt>
      <trkpt lat="43.02484" lon="0.1885">
        <ele>1059</ele>
        <time>2019-05-31T09:23:12Z</time>
      </trkpt>
      <trkpt lat="43.02468" lon="0.18872">
        <ele>1062</ele>
        <time>2019-05-31T09:23:35Z</time>
      </trkpt>
      <trkpt lat="43.02461" lon="0.18901">
        <ele>1073</ele>
        <time>2019-05-31T09:24:07Z</time>
      </trkpt>
      <trkpt lat="43.02442" lon="0.18921">
        <ele>1074</ele>
        <time>2019-05-31T09:25:46Z</time>
      </trkpt>
      <trkpt lat="43.0243" lon="0.18948">
        <ele>1083</ele>
        <time>2019-05-31T09:27:14Z</time>
      </trkpt>
      <trkpt lat="43.02415" lon="0.18971">
        <ele>1091</ele>
        <time>2019-05-31T09:27:43Z</time>
      </trkpt>
      <trkpt lat="43.02396" lon="0.1899">
        <ele>1098</ele>
        <time>2019-05-31T09:28:17Z</time>
      </trkpt>
      <trkpt lat="43.02377" lon="0.19008">
        <ele>1104</ele>
        <time>2019-05-31T09:28:49Z</time>
      </trkpt>
      <trkpt lat="43.02359" lon="0.19028">
        <ele>1111</ele>
        <time>2019-05-31T09:29:37Z</time>
      </trkpt>
      <trkpt lat="43.02367" lon="0.19057">
        <ele>1129</ele>
        <time>2019-05-31T09:31:48Z</time>
      </trkpt>
      <trkpt lat="43.02389" lon="0.19064">
        <ele>1136</ele>
        <time>2019-05-31T09:32:52Z</time>
      </trkpt>
      <trkpt lat="43.02384" lon="0.19094">
        <ele>1146</ele>
        <time>2019-05-31T09:35:47Z</time>
      </trkpt>
      <trkpt lat="43.02363" lon="0.19108">
        <ele>1152</ele>
        <time>2019-05-31T09:36:46Z</time>
      </trkpt>
      <trkpt lat="43.02343" lon="0.19124">
        <ele>1158</ele>
        <time>2019-05-31T09:37:41Z</time>
      </trkpt>
      <trkpt lat="43.02321" lon="0.19135">
        <ele>1165</ele>
        <time>2019-05-31T09:38:33Z</time>
      </trkpt>
      <trkpt lat="43.02308" lon="0.1916">
        <ele>1172</ele>
        <time>2019-05-31T09:39:11Z</time>
      </trkpt>
      <trkpt lat="43.02297" lon="0.19188">
        <ele>1175</ele>
        <time>2019-05-31T09:39:31Z</time>
      </trkpt>
      <trkpt lat="43.02276" lon="0.192">
        <ele>1182</ele>
        <time>2019-05-31T09:39:57Z</time>
      </trkpt>
      <trkpt lat="43.02258" lon="0.1922">
        <ele>1189</ele>
        <time>2019-05-31T09:40:22Z</time>
      </trkpt>
      <trkpt lat="43.0224" lon="0.19239">
        <ele>1193</ele>
        <time>2019-05-31T09:40:51Z</time>
      </trkpt>
      <trkpt lat="43.02226" lon="0.19264">
        <ele>1193</ele>
        <time>2019-05-31T09:41:42Z</time>
      </trkpt>
      <trkpt lat="43.02212" lon="0.19289">
        <ele>1194</ele>
        <time>2019-05-31T09:42:10Z</time>
      </trkpt>
      <trkpt lat="43.02196" lon="0.19311">
        <ele>1199</ele>
        <time>2019-05-31T09:42:35Z</time>
      </trkpt>
      <trkpt lat="43.02185" lon="0.19338">
        <ele>1196</ele>
        <time>2019-05-31T09:42:58Z</time>
      </trkpt>
      <trkpt lat="43.02168" lon="0.1936">
        <ele>1200</ele>
        <time>2019-05-31T09:43:23Z</time>
      </trkpt>
      <trkpt lat="43.02159" lon="0.19389">
        <ele>1200</ele>
        <time>2019-05-31T09:43:42Z</time>
      </trkpt>
      <trkpt lat="43.02149" lon="0.19418">
        <ele>1203</ele>
        <time>2019-05-31T09:44:08Z</time>
      </trkpt>
      <trkpt lat="43.02131" lon="0.19437">
        <ele>1209</ele>
        <time>2019-05-31T09:44:30Z</time>
      </trkpt>
      <trkpt lat="43.02109" lon="0.19448">
        <ele>1219</ele>
        <time>2019-05-31T09:44:56Z</time>
      </trkpt>
      <trkpt lat="43.02093" lon="0.19469">
        <ele>1221</ele>
        <time>2019-05-31T09:45:43Z</time>
      </trkpt>
      <trkpt lat="43.02084" lon="0.19498">
        <ele>1217</ele>
        <time>2019-05-31T09:46:02Z</time>
      </trkpt>
      <trkpt lat="43.02077" lon="0.19527">
        <ele>1216</ele>
        <time>2019-05-31T09:46:29Z</time>
      </trkpt>
      <trkpt lat="43.02062" lon="0.1955">
        <ele>1221</ele>
        <time>2019-05-31T09:46:55Z</time>
      </trkpt>
      <trkpt lat="43.02047" lon="0.19574">
        <ele>1225</ele>
        <time>2019-05-31T09:47:16Z</time>
      </trkpt>
      <trkpt lat="43.02039" lon="0.19603">
        <ele>1225</ele>
        <time>2019-05-31T09:48:14Z</time>
      </trkpt>
      <trkpt lat="43.02043" lon="0.19634">
        <ele>1219</ele>
        <time>2019-05-31T09:52:33Z</time>
      </trkpt>
      <trkpt lat="43.0205" lon="0.19663">
        <ele>1214</ele>
        <time>2019-05-31T09:53:01Z</time>
      </trkpt>
      <trkpt lat="43.02059" lon="0.19692">
        <ele>1210</ele>
        <time>2019-05-31T09:53:23Z</time>
      </trkpt>
      <trkpt lat="43.0207" lon="0.1972">
        <ele>1207</ele>
        <time>2019-05-31T09:53:48Z</time>
      </trkpt>
      <trkpt lat="43.02075" lon="0.19751">
        <ele>1208</ele>
        <time>2019-05-31T09:54:17Z</time>
      </trkpt>
      <trkpt lat="43.02061" lon="0.19776">
        <ele>1216</ele>
        <time>2019-05-31T09:55:04Z</time>
      </trkpt>
      <trkpt lat="43.02054" lon="0.19806">
        <ele>1213</ele>
        <time>2019-05-31T09:55:25Z</time>
      </trkpt>
      <trkpt lat="43.02049" lon="0.19836">
        <ele>1212</ele>
        <time>2019-05-31T09:56:02Z</time>
      </trkpt>
      <trkpt lat="43.02035" lon="0.1986">
        <ele>1215</ele>
        <time>2019-05-31T09:57:06Z</time>
      </trkpt>
      <trkpt lat="43.02025" lon="0.19888">
        <ele>1218</ele>
        <time>2019-05-31T09:58:31Z</time>
      </trkpt>
      <trkpt lat="43.02025" lon="0.1992">
        <ele>1218</ele>
        <time>2019-05-31T09:59:02Z</time>
      </trkpt>
      <trkpt lat="43.02025" lon="0.19951">
        <ele>1219</ele>
        <time>2019-05-31T09:59:22Z</time>
      </trkpt>
      <trkpt lat="43.02033" lon="0.1998">
        <ele>1220</ele>
        <time>2019-05-31T10:00:08Z</time>
      </trkpt>
      <trkpt lat="43.02027" lon="0.20011">
        <ele>1223</ele>
        <time>2019-05-31T10:00:43Z</time>
      </trkpt>
      <trkpt lat="43.02018" lon="0.2004">
        <ele>1225</ele>
        <time>2019-05-31T10:01:02Z</time>
      </trkpt>
      <trkpt lat="43.02015" lon="0.20071">
        <ele>1228</ele>
        <time>2019-05-31T10:01:33Z</time>
      </trkpt>
      <trkpt lat="43.02008" lon="0.20101">
        <ele>1231</ele>
        <time>2019-05-31T10:01:54Z</time>
      </trkpt>
      <trkpt lat="43.01995" lon="0.20126">
        <ele>1235</ele>
        <time>2019-05-31T10:02:14Z</time>
      </trkpt>
      <trkpt lat="43.0199" lon="0.20156">
        <ele>1238</ele>
        <time>2019-05-31T10:02:36Z</time>
      </trkpt>
      <trkpt lat="43.01986" lon="0.20188">
        <ele>1238</ele>
        <time>2019-05-31T10:02:57Z</time>
      </trkpt>
      <trkpt lat="43.01987" lon="0.2022">
        <ele>1241</ele>
        <time>2019-05-31T10:03:19Z</time>
      </trkpt>
      <trkpt lat="43.01994" lon="0.20249">
        <ele>1246</ele>
        <time>2019-05-31T10:03:40Z</time>
      </trkpt>
      <trkpt lat="43.0199" lon="0.2028">
        <ele>1253</ele>
        <time>2019-05-31T10:04:06Z</time>
      </trkpt>
      <trkpt lat="43.0197" lon="0.20293">
        <ele>1259</ele>
        <time>2019-05-31T10:04:34Z</time>
      </trkpt>
      <trkpt lat="43.01951" lon="0.20313">
        <ele>1264</ele>
        <time>2019-05-31T10:05:39Z</time>
      </trkpt>
      <trkpt lat="43.01936" lon="0.20335">
        <ele>1268</ele>
        <time>2019-05-31T10:06:03Z</time>
      </trkpt>
      <trkpt lat="43.01924" lon="0.20362">
        <ele>1271</ele>
        <time>2019-05-31T10:06:22Z</time>
      </trkpt>
      <trkpt lat="43.01915" lon="0.2039">
        <ele>1275</ele>
        <time>2019-05-31T10:06:43Z</time>
      </trkpt>
      <trkpt lat="43.01909" lon="0.2042">
        <ele>1279</ele>
        <time>2019-05-31T10:07:04Z</time>
      </trkpt>
      <trkpt lat="43.01905" lon="0.2045">
        <ele>1283</ele>
        <time>2019-05-31T10:07:26Z</time>
      </trkpt>
      <trkpt lat="43.01886" lon="0.2047">
        <ele>1283</ele>
        <time>2019-05-31T10:07:47Z</time>
      </trkpt>
      <trkpt lat="43.0187" lon="0.20492">
        <ele>1285</ele>
        <time>2019-05-31T10:08:07Z</time>
      </trkpt>
      <trkpt lat="43.01855" lon="0.20516">
        <ele>1284</ele>
        <time>2019-05-31T10:08:27Z</time>
      </trkpt>
      <trkpt lat="43.01835" lon="0.20531">
        <ele>1281</ele>
        <time>2019-05-31T10:09:34Z</time>
      </trkpt>
      <trkpt lat="43.01816" lon="0.20548">
        <ele>1281</ele>
        <time>2019-05-31T10:09:55Z</time>
      </trkpt>
      <trkpt lat="43.01796" lon="0.20565">
        <ele>1282</ele>
        <time>2019-05-31T10:10:14Z</time>
      </trkpt>
      <trkpt lat="43.0178" lon="0.20588">
        <ele>1281</ele>
        <time>2019-05-31T10:10:31Z</time>
      </trkpt>
      <trkpt lat="43.01767" lon="0.20614">
        <ele>1280</ele>
        <time>2019-05-31T10:10:51Z</time>
      </trkpt>
      <trkpt lat="43.01752" lon="0.20637">
        <ele>1281</ele>
        <time>2019-05-31T10:11:51Z</time>
      </trkpt>
      <trkpt lat="43.01744" lon="0.20666">
        <ele>1280</ele>
        <time>2019-05-31T10:12:09Z</time>
      </trkpt>
      <trkpt lat="43.01731" lon="0.20692">
        <ele>1282</ele>
        <time>2019-05-31T10:12:25Z</time>
      </trkpt>
      <trkpt lat="43.01718" lon="0.2072">
        <ele>1286</ele>
        <time>2019-05-31T10:12:49Z</time>
      </trkpt>
      <trkpt lat="43.01712" lon="0.2075">
        <ele>1287</ele>
        <time>2019-05-31T10:13:11Z</time>
      </trkpt>
      <trkpt lat="43.01703" lon="0.2078">
        <ele>1292</ele>
        <time>2019-05-31T10:13:32Z</time>
      </trkpt>
      <trkpt lat="43.01693" lon="0.20809">
        <ele>1296</ele>
        <time>2019-05-31T10:13:54Z</time>
      </trkpt>
      <trkpt lat="43.01681" lon="0.20837">
        <ele>1303</ele>
        <time>2019-05-31T10:14:14Z</time>
      </trkpt>
      <trkpt lat="43.01681" lon="0.20868">
        <ele>1304</ele>
        <time>2019-05-31T10:14:32Z</time>
      </trkpt>
      <trkpt lat="43.01678" lon="0.20898">
        <ele>1307</ele>
        <time>2019-05-31T10:14:54Z</time>
      </trkpt>
      <trkpt lat="43.01674" lon="0.20931">
        <ele>1311</ele>
        <time>2019-05-31T10:15:14Z</time>
      </trkpt>
      <trkpt lat="43.01674" lon="0.20963">
        <ele>1313</ele>
        <time>2019-05-31T10:15:32Z</time>
      </trkpt>
      <trkpt lat="43.01673" lon="0.20995">
        <ele>1315</ele>
        <time>2019-05-31T10:15:50Z</time>
      </trkpt>
      <trkpt lat="43.01669" lon="0.21027">
        <ele>1317</ele>
        <time>2019-05-31T10:16:10Z</time>
      </trkpt>
      <trkpt lat="43.01665" lon="0.21059">
        <ele>1316</ele>
        <time>2019-05-31T10:16:28Z</time>
      </trkpt>
      <trkpt lat="43.01662" lon="0.2109">
        <ele>1315</ele>
        <time>2019-05-31T10:16:46Z</time>
      </trkpt>
      <trkpt lat="43.01661" lon="0.21121">
        <ele>1312</ele>
        <time>2019-05-31T10:17:06Z</time>
      </trkpt>
      <trkpt lat="43.0166" lon="0.21154">
        <ele>1310</ele>
        <time>2019-05-31T10:17:23Z</time>
      </trkpt>
      <trkpt lat="43.01653" lon="0.21185">
        <ele>1312</ele>
        <time>2019-05-31T10:17:40Z</time>
      </trkpt>
      <trkpt lat="43.0165" lon="0.21216">
        <ele>1312</ele>
        <time>2019-05-31T10:17:59Z</time>
      </trkpt>
      <trkpt lat="43.01635" lon="0.21241">
        <ele>1313</ele>
        <time>2019-05-31T10:18:19Z</time>
      </trkpt>
      <trkpt lat="43.01619" lon="0.21263">
        <ele>1311</ele>
        <time>2019-05-31T10:18:42Z</time>
      </trkpt>
      <trkpt lat="43.0161" lon="0.21291">
        <ele>1306</ele>
        <time>2019-05-31T10:18:57Z</time>
      </trkpt>
      <trkpt lat="43.01604" lon="0.21322">
        <ele>1306</ele>
        <time>2019-05-31T10:19:13Z</time>
      </trkpt>
      <trkpt lat="43.01596" lon="0.21351">
        <ele>1307</ele>
        <time>2019-05-31T10:19:32Z</time>
      </trkpt>
      <trkpt lat="43.01584" lon="0.21378">
        <ele>1305</ele>
        <time>2019-05-31T10:19:51Z</time>
      </trkpt>
      <trkpt lat="43.01568" lon="0.21402">
        <ele>1306</ele>
        <time>2019-05-31T10:20:13Z</time>
      </trkpt>
      <trkpt lat="43.01556" lon="0.21429">
        <ele>1306</ele>
        <time>2019-05-31T10:20:30Z</time>
      </trkpt>
      <trkpt lat="43.01545" lon="0.21456">
        <ele>1306</ele>
        <time>2019-05-31T10:20:47Z</time>
      </trkpt>
      <trkpt lat="43.01532" lon="0.21484">
        <ele>1307</ele>
        <time>2019-05-31T10:21:08Z</time>
      </trkpt>
      <trkpt lat="43.01516" lon="0.21506">
        <ele>1310</ele>
        <time>2019-05-31T10:21:26Z</time>
      </trkpt>
      <trkpt lat="43.01502" lon="0.21532">
        <ele>1309</ele>
        <time>2019-05-31T10:21:54Z</time>
      </trkpt>
      <trkpt lat="43.01493" lon="0.21561">
        <ele>1307</ele>
        <time>2019-05-31T10:22:17Z</time>
      </trkpt>
      <trkpt lat="43.01486" lon="0.21591">
        <ele>1301</ele>
        <time>2019-05-31T10:22:39Z</time>
      </trkpt>
      <trkpt lat="43.01482" lon="0.21621">
        <ele>1294</ele>
        <time>2019-05-31T10:23:35Z</time>
      </trkpt>
      <trkpt lat="43.01471" lon="0.21649">
        <ele>1289</ele>
        <time>2019-05-31T10:24:05Z</time>
      </trkpt>
      <trkpt lat="43.0146" lon="0.21677">
        <ele>1288</ele>
        <time>2019-05-31T10:24:23Z</time>
      </trkpt>
      <trkpt lat="43.01453" lon="0.21707">
        <ele>1286</ele>
        <time>2019-05-31T10:24:41Z</time>
      </trkpt>
      <trkpt lat="43.01453" lon="0.21738">
        <ele>1288</ele>
        <time>2019-05-31T10:25:01Z</time>
      </trkpt>
      <trkpt lat="43.01469" lon="0.21761">
        <ele>1288</ele>
        <time>2019-05-31T10:25:20Z</time>
      </trkpt>
      <trkpt lat="43.01471" lon="0.21791">
        <ele>1292</ele>
        <time>2019-05-31T10:25:40Z</time>
      </trkpt>
      <trkpt lat="43.01483" lon="0.21819">
        <ele>1292</ele>
        <time>2019-05-31T10:25:58Z</time>
      </trkpt>
      <trkpt lat="43.015" lon="0.21839">
        <ele>1290</ele>
        <time>2019-05-31T10:26:43Z</time>
      </trkpt>
      <trkpt lat="43.01516" lon="0.21862">
        <ele>1290</ele>
        <time>2019-05-31T10:27:47Z</time>
      </trkpt>
      <trkpt lat="43.01528" lon="0.2189">
        <ele>1289</ele>
        <time>2019-05-31T10:28:11Z</time>
      </trkpt>
      <trkpt lat="43.01548" lon="0.21907">
        <ele>1288</ele>
        <time>2019-05-31T10:28:32Z</time>
      </trkpt>
      <trkpt lat="43.01548" lon="0.21939">
        <ele>1289</ele>
        <time>2019-05-31T10:29:00Z</time>
      </trkpt>
      <trkpt lat="43.0157" lon="0.2193">
        <ele>1288</ele>
        <time>2019-05-31T10:29:27Z</time>
      </trkpt>
      <trkpt lat="43.01589" lon="0.21911">
        <ele>1288</ele>
        <time>2019-05-31T10:29:52Z</time>
      </trkpt>
      <trkpt lat="43.01612" lon="0.21914">
        <ele>1292</ele>
        <time>2019-05-31T10:30:43Z</time>
      </trkpt>
      <trkpt lat="43.01634" lon="0.21925">
        <ele>1298</ele>
        <time>2019-05-31T10:31:42Z</time>
      </trkpt>
      <trkpt lat="43.01653" lon="0.21941">
        <ele>1304</ele>
        <time>2019-05-31T10:32:12Z</time>
      </trkpt>
      <trkpt lat="43.01675" lon="0.21948">
        <ele>1310</ele>
        <time>2019-05-31T10:32:41Z</time>
      </trkpt>
      <trkpt lat="43.01698" lon="0.21955">
        <ele>1318</ele>
        <time>2019-05-31T10:33:23Z</time>
      </trkpt>
      <trkpt lat="43.01694" lon="0.21985">
        <ele>1323</ele>
        <time>2019-05-31T10:34:09Z</time>
      </trkpt>
      <trkpt lat="43.01688" lon="0.22016">
        <ele>1327</ele>
        <time>2019-05-31T10:40:51Z</time>
      </trkpt>
      <trkpt lat="43.01681" lon="0.22045">
        <ele>1330</ele>
        <time>2019-05-31T10:41:13Z</time>
      </trkpt>
      <trkpt lat="43.01675" lon="0.22076">
        <ele>1335</ele>
        <time>2019-05-31T10:41:37Z</time>
      </trkpt>
      <trkpt lat="43.01665" lon="0.22104">
        <ele>1338</ele>
        <time>2019-05-31T10:42:00Z</time>
      </trkpt>
      <trkpt lat="43.01654" lon="0.22133">
        <ele>1341</ele>
        <time>2019-05-31T10:43:01Z</time>
      </trkpt>
      <trkpt lat="43.01645" lon="0.22161">
        <ele>1345</ele>
        <time>2019-05-31T10:43:20Z</time>
      </trkpt>
      <trkpt lat="43.01633" lon="0.22188">
        <ele>1347</ele>
        <time>2019-05-31T10:43:40Z</time>
      </trkpt>
      <trkpt lat="43.01631" lon="0.22219">
        <ele>1353</ele>
        <time>2019-05-31T10:44:08Z</time>
      </trkpt>
      <trkpt lat="43.01628" lon="0.2225">
        <ele>1358</ele>
        <time>2019-05-31T10:44:35Z</time>
      </trkpt>
      <trkpt lat="43.01622" lon="0.2228">
        <ele>1363</ele>
        <time>2019-05-31T10:45:07Z</time>
      </trkpt>
      <trkpt lat="43.01617" lon="0.22312">
        <ele>1370</ele>
        <time>2019-05-31T10:46:27Z</time>
      </trkpt>
      <trkpt lat="43.01615" lon="0.22342">
        <ele>1378</ele>
        <time>2019-05-31T10:47:07Z</time>
      </trkpt>
      <trkpt lat="43.01608" lon="0.22371">
        <ele>1383</ele>
        <time>2019-05-31T10:47:33Z</time>
      </trkpt>
      <trkpt lat="43.01595" lon="0.22398">
        <ele>1385</ele>
        <time>2019-05-31T10:47:59Z</time>
      </trkpt>
      <trkpt lat="43.0159" lon="0.22428">
        <ele>1391</ele>
        <time>2019-05-31T10:48:22Z</time>
      </trkpt>
      <trkpt lat="43.01609" lon="0.2241">
        <ele>1393</ele>
        <time>2019-05-31T10:48:50Z</time>
      </trkpt>
      <trkpt lat="43.01628" lon="0.22393">
        <ele>1397</ele>
        <time>2019-05-31T10:49:12Z</time>
      </trkpt>
      <trkpt lat="43.01636" lon="0.22423">
        <ele>1409</ele>
        <time>2019-05-31T10:50:10Z</time>
      </trkpt>
      <trkpt lat="43.01655" lon="0.22441">
        <ele>1423</ele>
        <time>2019-05-31T10:51:33Z</time>
      </trkpt>
      <trkpt lat="43.01676" lon="0.22431">
        <ele>1429</ele>
        <time>2019-05-31T10:52:24Z</time>
      </trkpt>
      <trkpt lat="43.01674" lon="0.22462">
        <ele>1436</ele>
        <time>2019-05-31T10:53:45Z</time>
      </trkpt>
      <trkpt lat="43.0167" lon="0.22493">
        <ele>1444</ele>
        <time>2019-05-31T10:54:11Z</time>
      </trkpt>
      <trkpt lat="43.01667" lon="0.22524">
        <ele>1451</ele>
        <time>2019-05-31T10:54:45Z</time>
      </trkpt>
      <trkpt lat="43.01657" lon="0.22552">
        <ele>1457</ele>
        <time>2019-05-31T10:55:16Z</time>
      </trkpt>
      <trkpt lat="43.01652" lon="0.22582">
        <ele>1465</ele>
        <time>2019-05-31T10:56:07Z</time>
      </trkpt>
      <trkpt lat="43.01654" lon="0.22613">
        <ele>1473</ele>
        <time>2019-05-31T10:56:47Z</time>
      </trkpt>
      <trkpt lat="43.01654" lon="0.22645">
        <ele>1481</ele>
        <time>2019-05-31T10:58:07Z</time>
      </trkpt>
      <trkpt lat="43.01643" lon="0.22673">
        <ele>1486</ele>
        <time>2019-05-31T10:58:35Z</time>
      </trkpt>
      <trkpt lat="43.0163" lon="0.22699">
        <ele>1490</ele>
        <time>2019-05-31T10:59:05Z</time>
      </trkpt>
      <trkpt lat="43.01638" lon="0.22729">
        <ele>1500</ele>
        <time>2019-05-31T10:59:41Z</time>
      </trkpt>
      <trkpt lat="43.01644" lon="0.22759">
        <ele>1506</ele>
        <time>2019-05-31T11:03:18Z</time>
      </trkpt>
      <trkpt lat="43.01629" lon="0.22783">
        <ele>1511</ele>
        <time>2019-05-31T11:03:56Z</time>
      </trkpt>
      <trkpt lat="43.01619" lon="0.22811">
        <ele>1517</ele>
        <time>2019-05-31T11:04:30Z</time>
      </trkpt>
      <trkpt lat="43.01604" lon="0.22834">
        <ele>1521</ele>
        <time>2019-05-31T11:05:03Z</time>
      </trkpt>
      <trkpt lat="43.01595" lon="0.22864">
        <ele>1525</ele>
        <time>2019-05-31T11:06:03Z</time>
      </trkpt>
      <trkpt lat="43.01582" lon="0.2289">
        <ele>1530</ele>
        <time>2019-05-31T11:06:28Z</time>
      </trkpt>
      <trkpt lat="43.01573" lon="0.22918">
        <ele>1533</ele>
        <time>2019-05-31T11:06:50Z</time>
      </trkpt>
      <trkpt lat="43.01564" lon="0.22948">
        <ele>1539</ele>
        <time>2019-05-31T11:07:16Z</time>
      </trkpt>
      <trkpt lat="43.01556" lon="0.22977">
        <ele>1545</ele>
        <time>2019-05-31T11:07:48Z</time>
      </trkpt>
      <trkpt lat="43.0155" lon="0.23007">
        <ele>1551</ele>
        <time>2019-05-31T11:09:27Z</time>
      </trkpt>
      <trkpt lat="43.01537" lon="0.23032">
        <ele>1558</ele>
        <time>2019-05-31T11:10:09Z</time>
      </trkpt>
      <trkpt lat="43.01519" lon="0.23052">
        <ele>1564</ele>
        <time>2019-05-31T11:10:42Z</time>
      </trkpt>
      <trkpt lat="43.0151" lon="0.23081">
        <ele>1568</ele>
        <time>2019-05-31T11:11:14Z</time>
      </trkpt>
      <trkpt lat="43.01489" lon="0.23094">
        <ele>1571</ele>
        <time>2019-05-31T11:12:12Z</time>
      </trkpt>
      <trkpt lat="43.0147" lon="0.23113">
        <ele>1577</ele>
        <time>2019-05-31T11:12:55Z</time>
      </trkpt>
      <trkpt lat="43.0145" lon="0.23128">
        <ele>1581</ele>
        <time>2019-05-31T11:13:17Z</time>
      </trkpt>
      <trkpt lat="43.01428" lon="0.23136">
        <ele>1586</ele>
        <time>2019-05-31T11:13:39Z</time>
      </trkpt>
      <trkpt lat="43.01405" lon="0.23144">
        <ele>1586</ele>
        <time>2019-05-31T11:15:11Z</time>
      </trkpt>
      <trkpt lat="43.01383" lon="0.23133">
        <ele>1583</ele>
        <time>2019-05-31T11:15:38Z</time>
      </trkpt>
      <trkpt lat="43.01382" lon="0.2314">
        <ele>1581</ele>
        <time>2019-05-31T11:53:07Z</time>
      </trkpt>
      <trkpt lat="43.01404" lon="0.23147">
        <ele>1585</ele>
        <time>2019-05-31T11:53:30Z</time>
      </trkpt>
      <trkpt lat="43.01426" lon="0.23136">
        <ele>1586</ele>
        <time>2019-05-31T11:54:06Z</time>
      </trkpt>
      <trkpt lat="43.01449" lon="0.23129">
        <ele>1582</ele>
        <time>2019-05-31T11:54:28Z</time>
      </trkpt>
      <trkpt lat="43.01469" lon="0.23116">
        <ele>1577</ele>
        <time>2019-05-31T11:54:49Z</time>
      </trkpt>
      <trkpt lat="43.01487" lon="0.23098">
        <ele>1571</ele>
        <time>2019-05-31T11:55:10Z</time>
      </trkpt>
      <trkpt lat="43.01505" lon="0.23079">
        <ele>1569</ele>
        <time>2019-05-31T11:55:31Z</time>
      </trkpt>
      <trkpt lat="43.01516" lon="0.23051">
        <ele>1564</ele>
        <time>2019-05-31T11:56:08Z</time>
      </trkpt>
      <trkpt lat="43.01532" lon="0.2303">
        <ele>1559</ele>
        <time>2019-05-31T11:56:32Z</time>
      </trkpt>
      <trkpt lat="43.01548" lon="0.23006">
        <ele>1551</ele>
        <time>2019-05-31T11:57:08Z</time>
      </trkpt>
      <trkpt lat="43.01555" lon="0.22977">
        <ele>1545</ele>
        <time>2019-05-31T11:57:36Z</time>
      </trkpt>
      <trkpt lat="43.01566" lon="0.22949">
        <ele>1539</ele>
        <time>2019-05-31T11:58:01Z</time>
      </trkpt>
      <trkpt lat="43.01572" lon="0.2292">
        <ele>1533</ele>
        <time>2019-05-31T11:58:52Z</time>
      </trkpt>
      <trkpt lat="43.01582" lon="0.22891">
        <ele>1530</ele>
        <time>2019-05-31T11:59:53Z</time>
      </trkpt>
      <trkpt lat="43.01593" lon="0.22863">
        <ele>1525</ele>
        <time>2019-05-31T12:00:13Z</time>
      </trkpt>
      <trkpt lat="43.01604" lon="0.22835">
        <ele>1521</ele>
        <time>2019-05-31T12:00:37Z</time>
      </trkpt>
      <trkpt lat="43.01619" lon="0.22811">
        <ele>1517</ele>
        <time>2019-05-31T12:01:06Z</time>
      </trkpt>
      <trkpt lat="43.0163" lon="0.22784">
        <ele>1511</ele>
        <time>2019-05-31T12:02:45Z</time>
      </trkpt>
      <trkpt lat="43.01643" lon="0.22758">
        <ele>1506</ele>
        <time>2019-05-31T12:03:09Z</time>
      </trkpt>
      <trkpt lat="43.01638" lon="0.22728">
        <ele>1499</ele>
        <time>2019-05-31T12:03:33Z</time>
      </trkpt>
      <trkpt lat="43.01634" lon="0.22697">
        <ele>1490</ele>
        <time>2019-05-31T12:04:24Z</time>
      </trkpt>
      <trkpt lat="43.01644" lon="0.22668">
        <ele>1485</ele>
        <time>2019-05-31T12:04:48Z</time>
      </trkpt>
      <trkpt lat="43.01653" lon="0.2264">
        <ele>1479</ele>
        <time>2019-05-31T12:05:16Z</time>
      </trkpt>
      <trkpt lat="43.01651" lon="0.2261">
        <ele>1471</ele>
        <time>2019-05-31T12:05:56Z</time>
      </trkpt>
      <trkpt lat="43.01656" lon="0.22579">
        <ele>1465</ele>
        <time>2019-05-31T12:06:40Z</time>
      </trkpt>
      <trkpt lat="43.01655" lon="0.22548">
        <ele>1456</ele>
        <time>2019-05-31T12:07:27Z</time>
      </trkpt>
      <trkpt lat="43.01667" lon="0.22521">
        <ele>1450</ele>
        <time>2019-05-31T12:07:52Z</time>
      </trkpt>
      <trkpt lat="43.01671" lon="0.22489">
        <ele>1443</ele>
        <time>2019-05-31T12:08:48Z</time>
      </trkpt>
      <trkpt lat="43.01675" lon="0.22459">
        <ele>1436</ele>
        <time>2019-05-31T12:09:16Z</time>
      </trkpt>
      <trkpt lat="43.01666" lon="0.2243">
        <ele>1425</ele>
        <time>2019-05-31T12:10:01Z</time>
      </trkpt>
      <trkpt lat="43.01645" lon="0.22441">
        <ele>1419</ele>
        <time>2019-05-31T12:10:58Z</time>
      </trkpt>
      <trkpt lat="43.01625" lon="0.22457">
        <ele>1416</ele>
        <time>2019-05-31T12:11:33Z</time>
      </trkpt>
      <trkpt lat="43.0161" lon="0.22481">
        <ele>1416</ele>
        <time>2019-05-31T12:12:03Z</time>
      </trkpt>
      <trkpt lat="43.01594" lon="0.22502">
        <ele>1412</ele>
        <time>2019-05-31T12:12:36Z</time>
      </trkpt>
      <trkpt lat="43.01581" lon="0.22528">
        <ele>1411</ele>
        <time>2019-05-31T12:12:56Z</time>
      </trkpt>
      <trkpt lat="43.01563" lon="0.22546">
        <ele>1410</ele>
        <time>2019-05-31T12:13:17Z</time>
      </trkpt>
      <trkpt lat="43.01543" lon="0.22563">
        <ele>1407</ele>
        <time>2019-05-31T12:13:50Z</time>
      </trkpt>
      <trkpt lat="43.01523" lon="0.22577">
        <ele>1404</ele>
        <time>2019-05-31T12:14:27Z</time>
      </trkpt>
      <trkpt lat="43.01505" lon="0.22598">
        <ele>1403</ele>
        <time>2019-05-31T12:14:51Z</time>
      </trkpt>
      <trkpt lat="43.01485" lon="0.22615">
        <ele>1402</ele>
        <time>2019-05-31T12:15:19Z</time>
      </trkpt>
      <trkpt lat="43.01464" lon="0.22628">
        <ele>1398</ele>
        <time>2019-05-31T12:15:39Z</time>
      </trkpt>
      <trkpt lat="43.01452" lon="0.22655">
        <ele>1399</ele>
        <time>2019-05-31T12:16:07Z</time>
      </trkpt>
      <trkpt lat="43.01434" lon="0.22675">
        <ele>1397</ele>
        <time>2019-05-31T12:17:47Z</time>
      </trkpt>
      <trkpt lat="43.01417" lon="0.22698">
        <ele>1395</ele>
        <time>2019-05-31T12:18:12Z</time>
      </trkpt>
      <trkpt lat="43.01399" lon="0.22716">
        <ele>1394</ele>
        <time>2019-05-31T12:18:34Z</time>
      </trkpt>
      <trkpt lat="43.0138" lon="0.22735">
        <ele>1394</ele>
        <time>2019-05-31T12:18:55Z</time>
      </trkpt>
      <trkpt lat="43.01361" lon="0.22753">
        <ele>1393</ele>
        <time>2019-05-31T12:19:16Z</time>
      </trkpt>
      <trkpt lat="43.01339" lon="0.22761">
        <ele>1390</ele>
        <time>2019-05-31T12:19:35Z</time>
      </trkpt>
      <trkpt lat="43.0132" lon="0.22779">
        <ele>1390</ele>
        <time>2019-05-31T12:20:16Z</time>
      </trkpt>
      <trkpt lat="43.01299" lon="0.22796">
        <ele>1388</ele>
        <time>2019-05-31T12:20:38Z</time>
      </trkpt>
      <trkpt lat="43.01279" lon="0.2281">
        <ele>1386</ele>
        <time>2019-05-31T12:20:57Z</time>
      </trkpt>
      <trkpt lat="43.01259" lon="0.22824">
        <ele>1384</ele>
        <time>2019-05-31T12:21:18Z</time>
      </trkpt>
      <trkpt lat="43.01237" lon="0.22833">
        <ele>1382</ele>
        <time>2019-05-31T12:21:35Z</time>
      </trkpt>
      <trkpt lat="43.01217" lon="0.2285">
        <ele>1381</ele>
        <time>2019-05-31T12:22:22Z</time>
      </trkpt>
      <trkpt lat="43.01202" lon="0.22874">
        <ele>1380</ele>
        <time>2019-05-31T12:23:16Z</time>
      </trkpt>
      <trkpt lat="43.01179" lon="0.22882">
        <ele>1380</ele>
        <time>2019-05-31T12:24:11Z</time>
      </trkpt>
      <trkpt lat="43.01159" lon="0.22897">
        <ele>1377</ele>
        <time>2019-05-31T12:24:45Z</time>
      </trkpt>
      <trkpt lat="43.01139" lon="0.22913">
        <ele>1368</ele>
        <time>2019-05-31T12:25:36Z</time>
      </trkpt>
      <trkpt lat="43.01116" lon="0.22905">
        <ele>1370</ele>
        <time>2019-05-31T12:25:56Z</time>
      </trkpt>
      <trkpt lat="43.01104" lon="0.22914">
        <ele>1369</ele>
        <time>2019-05-31T12:27:11Z</time>
      </trkpt>
      <trkpt lat="43.01084" lon="0.22931">
        <ele>1368</ele>
        <time>2019-05-31T12:27:52Z</time>
      </trkpt>
      <trkpt lat="43.01069" lon="0.22955">
        <ele>1365</ele>
        <time>2019-05-31T12:28:16Z</time>
      </trkpt>
      <trkpt lat="43.01049" lon="0.22972">
        <ele>1368</ele>
        <time>2019-05-31T12:28:43Z</time>
      </trkpt>
      <trkpt lat="43.01043" lon="0.23002">
        <ele>1359</ele>
        <time>2019-05-31T12:29:09Z</time>
      </trkpt>
      <trkpt lat="43.01035" lon="0.23031">
        <ele>1350</ele>
        <time>2019-05-31T12:30:05Z</time>
      </trkpt>
      <trkpt lat="43.01023" lon="0.23057">
        <ele>1348</ele>
        <time>2019-05-31T12:30:32Z</time>
      </trkpt>
      <trkpt lat="43.01003" lon="0.23075">
        <ele>1350</ele>
        <time>2019-05-31T12:30:54Z</time>
      </trkpt>
      <trkpt lat="43.00987" lon="0.23099">
        <ele>1343</ele>
        <time>2019-05-31T12:31:17Z</time>
      </trkpt>
      <trkpt lat="43.00978" lon="0.23128">
        <ele>1335</ele>
        <time>2019-05-31T12:31:39Z</time>
      </trkpt>
      <trkpt lat="43.00969" lon="0.23156">
        <ele>1325</ele>
        <time>2019-05-31T12:31:59Z</time>
      </trkpt>
      <trkpt lat="43.00973" lon="0.23186">
        <ele>1312</ele>
        <time>2019-05-31T12:32:42Z</time>
      </trkpt>
      <trkpt lat="43.00951" lon="0.23195">
        <ele>1310</ele>
        <time>2019-05-31T12:33:10Z</time>
      </trkpt>
      <trkpt lat="43.00937" lon="0.2322">
        <ele>1305</ele>
        <time>2019-05-31T12:34:03Z</time>
      </trkpt>
      <trkpt lat="43.00928" lon="0.23248">
        <ele>1295</ele>
        <time>2019-05-31T12:34:31Z</time>
      </trkpt>
      <trkpt lat="43.00908" lon="0.23265">
        <ele>1290</ele>
        <time>2019-05-31T12:35:26Z</time>
      </trkpt>
      <trkpt lat="43.00886" lon="0.2327">
        <ele>1292</ele>
        <time>2019-05-31T12:35:50Z</time>
      </trkpt>
      <trkpt lat="43.00866" lon="0.23286">
        <ele>1294</ele>
        <time>2019-05-31T12:36:49Z</time>
      </trkpt>
      <trkpt lat="43.00855" lon="0.23314">
        <ele>1288</ele>
        <time>2019-05-31T12:37:09Z</time>
      </trkpt>
      <trkpt lat="43.00839" lon="0.23336">
        <ele>1288</ele>
        <time>2019-05-31T12:37:31Z</time>
      </trkpt>
      <trkpt lat="43.00821" lon="0.23355">
        <ele>1290</ele>
        <time>2019-05-31T12:38:28Z</time>
      </trkpt>
      <trkpt lat="43.00802" lon="0.23373">
        <ele>1294</ele>
        <time>2019-05-31T12:39:01Z</time>
      </trkpt>
      <trkpt lat="43.0078" lon="0.23382">
        <ele>1301</ele>
        <time>2019-05-31T12:39:35Z</time>
      </trkpt>
      <trkpt lat="43.00757" lon="0.23388">
        <ele>1316</ele>
        <time>2019-05-31T12:40:54Z</time>
      </trkpt>
      <trkpt lat="43.00742" lon="0.23411">
        <ele>1319</ele>
        <time>2019-05-31T12:41:41Z</time>
      </trkpt>
      <trkpt lat="43.00721" lon="0.23422">
        <ele>1329</ele>
        <time>2019-05-31T12:42:00Z</time>
      </trkpt>
      <trkpt lat="43.00705" lon="0.23446">
        <ele>1329</ele>
        <time>2019-05-31T12:42:41Z</time>
      </trkpt>
      <trkpt lat="43.00686" lon="0.23464">
        <ele>1336</ele>
        <time>2019-05-31T12:42:59Z</time>
      </trkpt>
      <trkpt lat="43.00685" lon="0.23496">
        <ele>1329</ele>
        <time>2019-05-31T12:43:31Z</time>
      </trkpt>
      <trkpt lat="43.0068" lon="0.23526">
        <ele>1327</ele>
        <time>2019-05-31T12:43:56Z</time>
      </trkpt>
      <trkpt lat="43.00665" lon="0.23551">
        <ele>1338</ele>
        <time>2019-05-31T12:44:20Z</time>
      </trkpt>
      <trkpt lat="43.00664" lon="0.23582">
        <ele>1331</ele>
        <time>2019-05-31T12:44:37Z</time>
      </trkpt>
      <trkpt lat="43.00652" lon="0.23608">
        <ele>1326</ele>
        <time>2019-05-31T12:44:59Z</time>
      </trkpt>
      <trkpt lat="43.00631" lon="0.2362">
        <ele>1334</ele>
        <time>2019-05-31T12:45:24Z</time>
      </trkpt>
      <trkpt lat="43.00625" lon="0.23651">
        <ele>1325</ele>
        <time>2019-05-31T12:46:18Z</time>
      </trkpt>
      <trkpt lat="43.00618" lon="0.2368">
        <ele>1317</ele>
        <time>2019-05-31T12:46:52Z</time>
      </trkpt>
      <trkpt lat="43.00603" lon="0.23705">
        <ele>1314</ele>
        <time>2019-05-31T12:47:31Z</time>
      </trkpt>
      <trkpt lat="43.00586" lon="0.23729">
        <ele>1308</ele>
        <time>2019-05-31T12:47:57Z</time>
      </trkpt>
      <trkpt lat="43.00564" lon="0.23729">
        <ele>1304</ele>
        <time>2019-05-31T12:48:23Z</time>
      </trkpt>
      <trkpt lat="43.0054" lon="0.23723">
        <ele>1304</ele>
        <time>2019-05-31T12:48:39Z</time>
      </trkpt>
      <trkpt lat="43.00517" lon="0.23718">
        <ele>1306</ele>
        <time>2019-05-31T12:48:59Z</time>
      </trkpt>
      <trkpt lat="43.00494" lon="0.23713">
        <ele>1315</ele>
        <time>2019-05-31T12:49:18Z</time>
      </trkpt>
      <trkpt lat="43.0047" lon="0.23718">
        <ele>1324</ele>
        <time>2019-05-31T12:49:35Z</time>
      </trkpt>
      <trkpt lat="43.00457" lon="0.23744">
        <ele>1321</ele>
        <time>2019-05-31T12:49:59Z</time>
      </trkpt>
      <trkpt lat="43.00433" lon="0.23756">
        <ele>1335</ele>
        <time>2019-05-31T12:50:19Z</time>
      </trkpt>
      <trkpt lat="43.00421" lon="0.23782">
        <ele>1339</ele>
        <time>2019-05-31T12:52:01Z</time>
      </trkpt>
      <trkpt lat="43.00411" lon="0.23812">
        <ele>1344</ele>
        <time>2019-05-31T12:52:31Z</time>
      </trkpt>
      <trkpt lat="43.00406" lon="0.23844">
        <ele>1343</ele>
        <time>2019-05-31T12:52:47Z</time>
      </trkpt>
      <trkpt lat="43.00402" lon="0.23875">
        <ele>1342</ele>
        <time>2019-05-31T12:53:13Z</time>
      </trkpt>
      <trkpt lat="43.00386" lon="0.23899">
        <ele>1351</ele>
        <time>2019-05-31T12:53:29Z</time>
      </trkpt>
      <trkpt lat="43.00376" lon="0.23927">
        <ele>1350</ele>
        <time>2019-05-31T12:53:48Z</time>
      </trkpt>
      <trkpt lat="43.00365" lon="0.23953">
        <ele>1349</ele>
        <time>2019-05-31T12:54:21Z</time>
      </trkpt>
      <trkpt lat="43.00353" lon="0.23981">
        <ele>1346</ele>
        <time>2019-05-31T12:54:45Z</time>
      </trkpt>
      <trkpt lat="43.0034" lon="0.24006">
        <ele>1347</ele>
        <time>2019-05-31T12:55:09Z</time>
      </trkpt>
      <trkpt lat="43.00328" lon="0.24034">
        <ele>1345</ele>
        <time>2019-05-31T12:55:27Z</time>
      </trkpt>
      <trkpt lat="43.00311" lon="0.24055">
        <ele>1348</ele>
        <time>2019-05-31T12:55:47Z</time>
      </trkpt>
      <trkpt lat="43.00293" lon="0.24075">
        <ele>1352</ele>
        <time>2019-05-31T12:56:06Z</time>
      </trkpt>
      <trkpt lat="43.0028" lon="0.24103">
        <ele>1351</ele>
        <time>2019-05-31T12:56:29Z</time>
      </trkpt>
      <trkpt lat="43.0026" lon="0.24118">
        <ele>1354</ele>
        <time>2019-05-31T12:56:54Z</time>
      </trkpt>
      <trkpt lat="43.00239" lon="0.24103">
        <ele>1361</ele>
        <time>2019-05-31T12:57:36Z</time>
      </trkpt>
      <trkpt lat="43.0022" lon="0.24086">
        <ele>1366</ele>
        <time>2019-05-31T12:57:57Z</time>
      </trkpt>
      <trkpt lat="43.00201" lon="0.24069">
        <ele>1370</ele>
        <time>2019-05-31T12:58:16Z</time>
      </trkpt>
      <trkpt lat="43.00183" lon="0.24051">
        <ele>1372</ele>
        <time>2019-05-31T12:59:03Z</time>
      </trkpt>
      <trkpt lat="43.00164" lon="0.24033">
        <ele>1375</ele>
        <time>2019-05-31T12:59:24Z</time>
      </trkpt>
      <trkpt lat="43.00146" lon="0.24013">
        <ele>1378</ele>
        <time>2019-05-31T12:59:42Z</time>
      </trkpt>
      <trkpt lat="43.00127" lon="0.23997">
        <ele>1379</ele>
        <time>2019-05-31T13:00:03Z</time>
      </trkpt>
      <trkpt lat="43.0012" lon="0.23967">
        <ele>1380</ele>
        <time>2019-05-31T13:00:23Z</time>
      </trkpt>
      <trkpt lat="43.00109" lon="0.23939">
        <ele>1382</ele>
        <time>2019-05-31T13:00:44Z</time>
      </trkpt>
      <trkpt lat="43.00091" lon="0.23919">
        <ele>1386</ele>
        <time>2019-05-31T13:01:04Z</time>
      </trkpt>
      <trkpt lat="43.00068" lon="0.23915">
        <ele>1389</ele>
        <time>2019-05-31T13:01:36Z</time>
      </trkpt>
      <trkpt lat="43.0005" lon="0.23897">
        <ele>1393</ele>
        <time>2019-05-31T13:01:57Z</time>
      </trkpt>
      <trkpt lat="43.0003" lon="0.23884">
        <ele>1396</ele>
        <time>2019-05-31T13:02:21Z</time>
      </trkpt>
      <trkpt lat="43.00009" lon="0.23867">
        <ele>1399</ele>
        <time>2019-05-31T13:02:41Z</time>
      </trkpt>
      <trkpt lat="42.99987" lon="0.23859">
        <ele>1400</ele>
        <time>2019-05-31T13:03:01Z</time>
      </trkpt>
      <trkpt lat="42.9997" lon="0.2384">
        <ele>1402</ele>
        <time>2019-05-31T13:03:20Z</time>
      </trkpt>
      <trkpt lat="42.99953" lon="0.23817">
        <ele>1406</ele>
        <time>2019-05-31T13:04:09Z</time>
      </trkpt>
      <trkpt lat="42.99933" lon="0.23802">
        <ele>1409</ele>
        <time>2019-05-31T13:04:28Z</time>
      </trkpt>
      <trkpt lat="42.9991" lon="0.23791">
        <ele>1410</ele>
        <time>2019-05-31T13:04:54Z</time>
      </trkpt>
      <trkpt lat="42.99896" lon="0.23766">
        <ele>1410</ele>
        <time>2019-05-31T13:05:17Z</time>
      </trkpt>
      <trkpt lat="42.99877" lon="0.23747">
        <ele>1409</ele>
        <time>2019-05-31T13:05:39Z</time>
      </trkpt>
      <trkpt lat="42.99859" lon="0.23728">
        <ele>1407</ele>
        <time>2019-05-31T13:09:49Z</time>
      </trkpt>
      <trkpt lat="42.9984" lon="0.23711">
        <ele>1404</ele>
        <time>2019-05-31T13:10:10Z</time>
      </trkpt>
      <trkpt lat="42.99818" lon="0.23704">
        <ele>1400</ele>
        <time>2019-05-31T13:10:41Z</time>
      </trkpt>
      <trkpt lat="42.99795" lon="0.23698">
        <ele>1396</ele>
        <time>2019-05-31T13:11:01Z</time>
      </trkpt>
      <trkpt lat="42.99772" lon="0.23695">
        <ele>1392</ele>
        <time>2019-05-31T13:11:22Z</time>
      </trkpt>
      <trkpt lat="42.99749" lon="0.23691">
        <ele>1389</ele>
        <time>2019-05-31T13:11:55Z</time>
      </trkpt>
      <trkpt lat="42.99727" lon="0.23687">
        <ele>1383</ele>
        <time>2019-05-31T13:12:49Z</time>
      </trkpt>
      <trkpt lat="42.99703" lon="0.23693">
        <ele>1378</ele>
        <time>2019-05-31T13:13:31Z</time>
      </trkpt>
      <trkpt lat="42.99681" lon="0.23701">
        <ele>1374</ele>
        <time>2019-05-31T13:13:52Z</time>
      </trkpt>
      <trkpt lat="42.99658" lon="0.23704">
        <ele>1368</ele>
        <time>2019-05-31T13:14:13Z</time>
      </trkpt>
      <trkpt lat="42.99636" lon="0.23708">
        <ele>1362</ele>
        <time>2019-05-31T13:14:33Z</time>
      </trkpt>
      <trkpt lat="42.99613" lon="0.23708">
        <ele>1356</ele>
        <time>2019-05-31T13:15:43Z</time>
      </trkpt>
      <trkpt lat="42.9959" lon="0.23713">
        <ele>1348</ele>
        <time>2019-05-31T13:16:19Z</time>
      </trkpt>
      <trkpt lat="42.99578" lon="0.23685">
        <ele>1340</ele>
        <time>2019-05-31T13:17:11Z</time>
      </trkpt>
      <trkpt lat="42.99564" lon="0.2366">
        <ele>1332</ele>
        <time>2019-05-31T13:17:50Z</time>
      </trkpt>
      <trkpt lat="42.99549" lon="0.23635">
        <ele>1326</ele>
        <time>2019-05-31T13:18:12Z</time>
      </trkpt>
      <trkpt lat="42.99546" lon="0.23605">
        <ele>1323</ele>
        <time>2019-05-31T13:19:06Z</time>
      </trkpt>
      <trkpt lat="42.99553" lon="0.23575">
        <ele>1319</ele>
        <time>2019-05-31T13:19:32Z</time>
      </trkpt>
      <trkpt lat="42.99565" lon="0.23548">
        <ele>1315</ele>
        <time>2019-05-31T13:19:59Z</time>
      </trkpt>
      <trkpt lat="42.99577" lon="0.23522">
        <ele>1310</ele>
        <time>2019-05-31T13:20:20Z</time>
      </trkpt>
      <trkpt lat="42.99588" lon="0.23494">
        <ele>1304</ele>
        <time>2019-05-31T13:20:40Z</time>
      </trkpt>
      <trkpt lat="42.996" lon="0.23468">
        <ele>1299</ele>
        <time>2019-05-31T13:21:00Z</time>
      </trkpt>
      <trkpt lat="42.99612" lon="0.23441">
        <ele>1292</ele>
        <time>2019-05-31T13:21:22Z</time>
      </trkpt>
      <trkpt lat="42.99621" lon="0.23413">
        <ele>1287</ele>
        <time>2019-05-31T13:21:41Z</time>
      </trkpt>
      <trkpt lat="42.99628" lon="0.23382">
        <ele>1281</ele>
        <time>2019-05-31T13:22:03Z</time>
      </trkpt>
      <trkpt lat="42.99626" lon="0.23351">
        <ele>1275</ele>
        <time>2019-05-31T13:22:21Z</time>
      </trkpt>
      <trkpt lat="42.99623" lon="0.23319">
        <ele>1270</ele>
        <time>2019-05-31T13:22:39Z</time>
      </trkpt>
      <trkpt lat="42.99617" lon="0.23288">
        <ele>1266</ele>
        <time>2019-05-31T13:22:57Z</time>
      </trkpt>
      <trkpt lat="42.99618" lon="0.23257">
        <ele>1263</ele>
        <time>2019-05-31T13:23:18Z</time>
      </trkpt>
      <trkpt lat="42.99621" lon="0.23226">
        <ele>1260</ele>
        <time>2019-05-31T13:24:36Z</time>
      </trkpt>
      <trkpt lat="42.9963" lon="0.23198">
        <ele>1257</ele>
        <time>2019-05-31T13:24:58Z</time>
      </trkpt>
      <trkpt lat="42.99642" lon="0.23171">
        <ele>1252</ele>
        <time>2019-05-31T13:25:20Z</time>
      </trkpt>
      <trkpt lat="42.99653" lon="0.23144">
        <ele>1246</ele>
        <time>2019-05-31T13:26:23Z</time>
      </trkpt>
      <trkpt lat="42.99662" lon="0.23115">
        <ele>1240</ele>
        <time>2019-05-31T13:26:50Z</time>
      </trkpt>
      <trkpt lat="42.99674" lon="0.23088">
        <ele>1235</ele>
        <time>2019-05-31T13:27:24Z</time>
      </trkpt>
      <trkpt lat="42.99684" lon="0.2306">
        <ele>1228</ele>
        <time>2019-05-31T13:27:49Z</time>
      </trkpt>
      <trkpt lat="42.99695" lon="0.23033">
        <ele>1221</ele>
        <time>2019-05-31T13:28:38Z</time>
      </trkpt>
      <trkpt lat="42.99707" lon="0.23006">
        <ele>1214</ele>
        <time>2019-05-31T13:29:06Z</time>
      </trkpt>
      <trkpt lat="42.9971" lon="0.22976">
        <ele>1203</ele>
        <time>2019-05-31T13:29:35Z</time>
      </trkpt>
      <trkpt lat="42.99687" lon="0.22976">
        <ele>1194</ele>
        <time>2019-05-31T13:30:21Z</time>
      </trkpt>
      <trkpt lat="42.9967" lon="0.22956">
        <ele>1177</ele>
        <time>2019-05-31T13:31:47Z</time>
      </trkpt>
      <trkpt lat="42.99672" lon="0.22925">
        <ele>1165</ele>
        <time>2019-05-31T13:32:15Z</time>
      </trkpt>
      <trkpt lat="42.99669" lon="0.22894">
        <ele>1158</ele>
        <time>2019-05-31T13:33:30Z</time>
      </trkpt>
      <trkpt lat="42.99664" lon="0.22864">
        <ele>1153</ele>
        <time>2019-05-31T13:34:20Z</time>
      </trkpt>
      <trkpt lat="42.99654" lon="0.22835">
        <ele>1140</ele>
        <time>2019-05-31T13:35:12Z</time>
      </trkpt>
      <trkpt lat="42.99639" lon="0.22811">
        <ele>1130</ele>
        <time>2019-05-31T13:35:41Z</time>
      </trkpt>
      <trkpt lat="42.9964" lon="0.22781">
        <ele>1133</ele>
        <time>2019-05-31T13:37:07Z</time>
      </trkpt>
      <trkpt lat="42.99638" lon="0.22749">
        <ele>1125</ele>
        <time>2019-05-31T13:37:35Z</time>
      </trkpt>
      <trkpt lat="42.9964" lon="0.22717">
        <ele>1120</ele>
        <time>2019-05-31T13:37:54Z</time>
      </trkpt>
      <trkpt lat="42.99635" lon="0.22687">
        <ele>1111</ele>
        <time>2019-05-31T13:38:25Z</time>
      </trkpt>
      <trkpt lat="42.99627" lon="0.22658">
        <ele>1102</ele>
        <time>2019-05-31T13:38:48Z</time>
      </trkpt>
      <trkpt lat="42.99626" lon="0.22626">
        <ele>1103</ele>
        <time>2019-05-31T13:39:25Z</time>
      </trkpt>
      <trkpt lat="42.99618" lon="0.22598">
        <ele>1095</ele>
        <time>2019-05-31T13:40:14Z</time>
      </trkpt>
      <trkpt lat="42.99605" lon="0.22624">
        <ele>1084</ele>
        <time>2019-05-31T13:40:50Z</time>
      </trkpt>
      <trkpt lat="42.99595" lon="0.22652">
        <ele>1075</ele>
        <time>2019-05-31T13:41:19Z</time>
      </trkpt>
      <trkpt lat="42.99587" lon="0.22622">
        <ele>1069</ele>
        <time>2019-05-31T13:42:04Z</time>
      </trkpt>
      <trkpt lat="42.99589" lon="0.22591">
        <ele>1068</ele>
        <time>2019-05-31T13:42:32Z</time>
      </trkpt>
      <trkpt lat="42.99596" lon="0.2256">
        <ele>1069</ele>
        <time>2019-05-31T13:43:12Z</time>
      </trkpt>
      <trkpt lat="42.99611" lon="0.22535">
        <ele>1072</ele>
        <time>2019-05-31T13:43:47Z</time>
      </trkpt>
      <trkpt lat="42.99611" lon="0.22503">
        <ele>1051</ele>
        <time>2019-05-31T13:44:19Z</time>
      </trkpt>
      <trkpt lat="42.99616" lon="0.22472">
        <ele>1045</ele>
        <time>2019-05-31T13:44:50Z</time>
      </trkpt>
      <trkpt lat="42.99621" lon="0.22441">
        <ele>1039</ele>
        <time>2019-05-31T13:45:20Z</time>
      </trkpt>
      <trkpt lat="42.99634" lon="0.22416">
        <ele>1037</ele>
        <time>2019-05-31T13:45:56Z</time>
      </trkpt>
      <trkpt lat="42.99651" lon="0.22395">
        <ele>1032</ele>
        <time>2019-05-31T13:46:31Z</time>
      </trkpt>
      <trkpt lat="42.99667" lon="0.22373">
        <ele>1026</ele>
        <time>2019-05-31T13:46:57Z</time>
      </trkpt>
      <trkpt lat="42.9967" lon="0.22341">
        <ele>1013</ele>
        <time>2019-05-31T13:47:24Z</time>
      </trkpt>
      <trkpt lat="42.99677" lon="0.22311">
        <ele>1006</ele>
        <time>2019-05-31T13:47:53Z</time>
      </trkpt>
      <trkpt lat="42.9967" lon="0.22281">
        <ele>996</ele>
        <time>2019-05-31T13:48:23Z</time>
      </trkpt>
      <trkpt lat="42.99666" lon="0.2225">
        <ele>989</ele>
        <time>2019-05-31T13:49:26Z</time>
      </trkpt>
      <trkpt lat="42.99672" lon="0.2222">
        <ele>988</ele>
        <time>2019-05-31T13:49:50Z</time>
      </trkpt>
      <trkpt lat="42.99676" lon="0.22189">
        <ele>983</ele>
        <time>2019-05-31T13:50:12Z</time>
      </trkpt>
      <trkpt lat="42.99683" lon="0.22159">
        <ele>977</ele>
        <time>2019-05-31T13:50:34Z</time>
      </trkpt>
      <trkpt lat="42.99688" lon="0.22129">
        <ele>971</ele>
        <time>2019-05-31T13:50:56Z</time>
      </trkpt>
      <trkpt lat="42.99693" lon="0.22098">
        <ele>968</ele>
        <time>2019-05-31T13:51:21Z</time>
      </trkpt>
      <trkpt lat="42.9969" lon="0.22068">
        <ele>960</ele>
        <time>2019-05-31T13:51:46Z</time>
      </trkpt>
      <trkpt lat="42.99688" lon="0.22036">
        <ele>954</ele>
        <time>2019-05-31T13:52:16Z</time>
      </trkpt>
      <trkpt lat="42.99687" lon="0.22004">
        <ele>948</ele>
        <time>2019-05-31T13:52:48Z</time>
      </trkpt>
      <trkpt lat="42.99685" lon="0.21972">
        <ele>940</ele>
        <time>2019-05-31T13:53:15Z</time>
      </trkpt>
      <trkpt lat="42.99686" lon="0.2194">
        <ele>933</ele>
        <time>2019-05-31T13:54:10Z</time>
      </trkpt>
      <trkpt lat="42.99691" lon="0.2191">
        <ele>928</ele>
        <time>2019-05-31T13:54:33Z</time>
      </trkpt>
      <trkpt lat="42.99695" lon="0.21877">
        <ele>923</ele>
        <time>2019-05-31T13:55:21Z</time>
      </trkpt>
      <trkpt lat="42.99703" lon="0.21847">
        <ele>921</ele>
        <time>2019-05-31T13:55:40Z</time>
      </trkpt>
      <trkpt lat="42.99706" lon="0.21815">
        <ele>915</ele>
        <time>2019-05-31T13:56:01Z</time>
      </trkpt>
      <trkpt lat="42.99711" lon="0.21784">
        <ele>911</ele>
        <time>2019-05-31T13:56:22Z</time>
      </trkpt>
      <trkpt lat="42.9972" lon="0.21754">
        <ele>909</ele>
        <time>2019-05-31T13:56:42Z</time>
      </trkpt>
      <trkpt lat="42.99732" lon="0.21727">
        <ele>908</ele>
        <time>2019-05-31T13:57:32Z</time>
      </trkpt>
      <trkpt lat="42.99743" lon="0.21699">
        <ele>905</ele>
        <time>2019-05-31T13:57:50Z</time>
      </trkpt>
      <trkpt lat="42.99752" lon="0.21669">
        <ele>902</ele>
        <time>2019-05-31T13:58:39Z</time>
      </trkpt>
      <trkpt lat="42.99767" lon="0.21646">
        <ele>906</ele>
        <time>2019-05-31T13:58:59Z</time>
      </trkpt>
      <trkpt lat="42.9978" lon="0.2162">
        <ele>907</ele>
        <time>2019-05-31T13:59:26Z</time>
      </trkpt>
      <trkpt lat="42.99795" lon="0.21597">
        <ele>910</ele>
        <time>2019-05-31T13:59:43Z</time>
      </trkpt>
      <trkpt lat="42.99809" lon="0.21572">
        <ele>911</ele>
        <time>2019-05-31T14:00:01Z</time>
      </trkpt>
      <trkpt lat="42.99817" lon="0.21542">
        <ele>910</ele>
        <time>2019-05-31T14:00:17Z</time>
      </trkpt>
      <trkpt lat="42.99826" lon="0.21513">
        <ele>909</ele>
        <time>2019-05-31T14:00:36Z</time>
      </trkpt>
      <trkpt lat="42.99838" lon="0.21487">
        <ele>909</ele>
        <time>2019-05-31T14:01:12Z</time>
      </trkpt>
      <trkpt lat="42.99859" lon="0.21471">
        <ele>911</ele>
        <time>2019-05-31T14:01:31Z</time>
      </trkpt>
      <trkpt lat="42.99878" lon="0.21455">
        <ele>913</ele>
        <time>2019-05-31T14:01:51Z</time>
      </trkpt>
      <trkpt lat="42.99878" lon="0.21423">
        <ele>908</ele>
        <time>2019-05-31T14:02:13Z</time>
      </trkpt>
      <trkpt lat="42.99891" lon="0.21398">
        <ele>910</ele>
        <time>2019-05-31T14:02:29Z</time>
      </trkpt>
      <trkpt lat="42.99913" lon="0.21387">
        <ele>913</ele>
        <time>2019-05-31T14:02:45Z</time>
      </trkpt>
      <trkpt lat="42.99933" lon="0.2137">
        <ele>911</ele>
        <time>2019-05-31T14:03:09Z</time>
      </trkpt>
      <trkpt lat="42.99949" lon="0.21347">
        <ele>910</ele>
        <time>2019-05-31T14:03:29Z</time>
      </trkpt>
      <trkpt lat="42.99952" lon="0.21314">
        <ele>909</ele>
        <time>2019-05-31T14:05:44Z</time>
      </trkpt>
      <trkpt lat="42.99941" lon="0.21286">
        <ele>905</ele>
        <time>2019-05-31T14:06:01Z</time>
      </trkpt>
      <trkpt lat="42.99942" lon="0.21255">
        <ele>903</ele>
        <time>2019-05-31T14:06:20Z</time>
      </trkpt>
      <trkpt lat="42.99951" lon="0.21225">
        <ele>901</ele>
        <time>2019-05-31T14:06:37Z</time>
      </trkpt>
      <trkpt lat="42.99953" lon="0.21194">
        <ele>895</ele>
        <time>2019-05-31T14:07:10Z</time>
      </trkpt>
      <trkpt lat="42.99964" lon="0.21166">
        <ele>894</ele>
        <time>2019-05-31T14:07:26Z</time>
      </trkpt>
      <trkpt lat="42.99977" lon="0.2114">
        <ele>895</ele>
        <time>2019-05-31T14:07:47Z</time>
      </trkpt>
      <trkpt lat="42.99989" lon="0.21113">
        <ele>892</ele>
        <time>2019-05-31T14:08:05Z</time>
      </trkpt>
      <trkpt lat="43.00003" lon="0.21089">
        <ele>894</ele>
        <time>2019-05-31T14:08:27Z</time>
      </trkpt>
      <trkpt lat="43.00016" lon="0.21063">
        <ele>892</ele>
        <time>2019-05-31T14:08:46Z</time>
      </trkpt>
      <trkpt lat="43.00029" lon="0.21036">
        <ele>892</ele>
        <time>2019-05-31T14:09:05Z</time>
      </trkpt>
      <trkpt lat="43.00042" lon="0.2101">
        <ele>893</ele>
        <time>2019-05-31T14:09:25Z</time>
      </trkpt>
      <trkpt lat="43.00058" lon="0.20989">
        <ele>895</ele>
        <time>2019-05-31T14:09:42Z</time>
      </trkpt>
      <trkpt lat="43.00074" lon="0.20966">
        <ele>896</ele>
        <time>2019-05-31T14:10:03Z</time>
      </trkpt>
      <trkpt lat="43.00089" lon="0.20942">
        <ele>898</ele>
        <time>2019-05-31T14:10:21Z</time>
      </trkpt>
      <trkpt lat="43.00102" lon="0.20917">
        <ele>896</ele>
        <time>2019-05-31T14:10:47Z</time>
      </trkpt>
      <trkpt lat="43.00117" lon="0.20893">
        <ele>895</ele>
        <time>2019-05-31T14:11:08Z</time>
      </trkpt>
      <trkpt lat="43.00131" lon="0.20868">
        <ele>894</ele>
        <time>2019-05-31T14:11:27Z</time>
      </trkpt>
      <trkpt lat="43.00148" lon="0.20848">
        <ele>894</ele>
        <time>2019-05-31T14:11:55Z</time>
      </trkpt>
      <trkpt lat="43.00162" lon="0.20822">
        <ele>892</ele>
        <time>2019-05-31T14:12:17Z</time>
      </trkpt>
      <trkpt lat="43.00175" lon="0.20796">
        <ele>891</ele>
        <time>2019-05-31T14:12:35Z</time>
      </trkpt>
      <trkpt lat="43.00191" lon="0.20775">
        <ele>889</ele>
        <time>2019-05-31T14:12:56Z</time>
      </trkpt>
      <trkpt lat="43.0021" lon="0.20757">
        <ele>891</ele>
        <time>2019-05-31T14:13:57Z</time>
      </trkpt>
      <trkpt lat="43.00221" lon="0.2073">
        <ele>889</ele>
        <time>2019-05-31T14:14:14Z</time>
      </trkpt>
      <trkpt lat="43.0023" lon="0.207">
        <ele>888</ele>
        <time>2019-05-31T14:14:32Z</time>
      </trkpt>
      <trkpt lat="43.00248" lon="0.2068">
        <ele>892</ele>
        <time>2019-05-31T14:14:53Z</time>
      </trkpt>
      <trkpt lat="43.00259" lon="0.20652">
        <ele>890</ele>
        <time>2019-05-31T14:15:28Z</time>
      </trkpt>
      <trkpt lat="43.00265" lon="0.20622">
        <ele>887</ele>
        <time>2019-05-31T14:15:47Z</time>
      </trkpt>
      <trkpt lat="43.00269" lon="0.20592">
        <ele>884</ele>
        <time>2019-05-31T14:16:05Z</time>
      </trkpt>
      <trkpt lat="43.00274" lon="0.20561">
        <ele>885</ele>
        <time>2019-05-31T14:16:54Z</time>
      </trkpt>
      <trkpt lat="43.00286" lon="0.20535">
        <ele>893</ele>
        <time>2019-05-31T14:17:16Z</time>
      </trkpt>
      <trkpt lat="43.00289" lon="0.20504">
        <ele>895</ele>
        <time>2019-05-31T14:17:40Z</time>
      </trkpt>
      <trkpt lat="43.00303" lon="0.20479">
        <ele>900</ele>
        <time>2019-05-31T14:18:02Z</time>
      </trkpt>
      <trkpt lat="43.00315" lon="0.20452">
        <ele>899</ele>
        <time>2019-05-31T14:20:05Z</time>
      </trkpt>
      <trkpt lat="43.00334" lon="0.20436">
        <ele>899</ele>
        <time>2019-05-31T14:20:27Z</time>
      </trkpt>
      <trkpt lat="43.00357" lon="0.20436">
        <ele>903</ele>
        <time>2019-05-31T14:20:43Z</time>
      </trkpt>
      <trkpt lat="43.00378" lon="0.20424">
        <ele>899</ele>
        <time>2019-05-31T14:21:02Z</time>
      </trkpt>
      <trkpt lat="43.00398" lon="0.2041">
        <ele>892</ele>
        <time>2019-05-31T14:21:23Z</time>
      </trkpt>
      <trkpt lat="43.00418" lon="0.20424">
        <ele>897</ele>
        <time>2019-05-31T14:21:44Z</time>
      </trkpt>
      <trkpt lat="43.00439" lon="0.20437">
        <ele>899</ele>
        <time>2019-05-31T14:22:04Z</time>
      </trkpt>
      <trkpt lat="43.00462" lon="0.20431">
        <ele>894</ele>
        <time>2019-05-31T14:22:27Z</time>
      </trkpt>
      <trkpt lat="43.00484" lon="0.20427">
        <ele>892</ele>
        <time>2019-05-31T14:22:48Z</time>
      </trkpt>
      <trkpt lat="43.00507" lon="0.20433">
        <ele>894</ele>
        <time>2019-05-31T14:23:20Z</time>
      </trkpt>
      <trkpt lat="43.00527" lon="0.20447">
        <ele>900</ele>
        <time>2019-05-31T14:23:46Z</time>
      </trkpt>
      <trkpt lat="43.0055" lon="0.20452">
        <ele>901</ele>
        <time>2019-05-31T14:24:06Z</time>
      </trkpt>
      <trkpt lat="43.00573" lon="0.20444">
        <ele>898</ele>
        <time>2019-05-31T14:24:31Z</time>
      </trkpt>
      <trkpt lat="43.0057" lon="0.20413">
        <ele>898</ele>
        <time>2019-05-31T14:26:22Z</time>
      </trkpt>
      <trkpt lat="43.00556" lon="0.20389">
        <ele>893</ele>
        <time>2019-05-31T14:26:55Z</time>
      </trkpt>
      <trkpt lat="43.0055" lon="0.20359">
        <ele>900</ele>
        <time>2019-05-31T14:27:40Z</time>
      </trkpt>
      <trkpt lat="43.00548" lon="0.20328">
        <ele>908</ele>
        <time>2019-05-31T14:28:24Z</time>
      </trkpt>
      <trkpt lat="43.00549" lon="0.20297">
        <ele>913</ele>
        <time>2019-05-31T14:28:51Z</time>
      </trkpt>
      <trkpt lat="43.00565" lon="0.20276">
        <ele>921</ele>
        <time>2019-05-31T14:29:31Z</time>
      </trkpt>
      <trkpt lat="43.00587" lon="0.20265">
        <ele>925</ele>
        <time>2019-05-31T14:30:16Z</time>
      </trkpt>
      <trkpt lat="43.0061" lon="0.20257">
        <ele>924</ele>
        <time>2019-05-31T14:30:37Z</time>
      </trkpt>
      <trkpt lat="43.00632" lon="0.20254">
        <ele>926</ele>
        <time>2019-05-31T14:30:56Z</time>
      </trkpt>
      <trkpt lat="43.00652" lon="0.2024">
        <ele>923</ele>
        <time>2019-05-31T14:31:12Z</time>
      </trkpt>
      <trkpt lat="43.00663" lon="0.20212">
        <ele>915</ele>
        <time>2019-05-31T14:32:05Z</time>
      </trkpt>
      <trkpt lat="43.00677" lon="0.20186">
        <ele>915</ele>
        <time>2019-05-31T14:32:56Z</time>
      </trkpt>
      <trkpt lat="43.00669" lon="0.20157">
        <ele>905</ele>
        <time>2019-05-31T14:33:20Z</time>
      </trkpt>
      <trkpt lat="43.00663" lon="0.20126">
        <ele>905</ele>
        <time>2019-05-31T14:33:44Z</time>
      </trkpt>
      <trkpt lat="43.00657" lon="0.20095">
        <ele>905</ele>
        <time>2019-05-31T14:34:02Z</time>
      </trkpt>
      <trkpt lat="43.0065" lon="0.20065">
        <ele>904</ele>
        <time>2019-05-31T14:34:41Z</time>
      </trkpt>
      <trkpt lat="43.00657" lon="0.20034">
        <ele>909</ele>
        <time>2019-05-31T14:35:06Z</time>
      </trkpt>
      <trkpt lat="43.00672" lon="0.2001">
        <ele>910</ele>
        <time>2019-05-31T14:35:28Z</time>
      </trkpt>
      <trkpt lat="43.00692" lon="0.19994">
        <ele>909</ele>
        <time>2019-05-31T14:35:49Z</time>
      </trkpt>
      <trkpt lat="43.00715" lon="0.1999">
        <ele>910</ele>
        <time>2019-05-31T14:36:08Z</time>
      </trkpt>
      <trkpt lat="43.00737" lon="0.19979">
        <ele>906</ele>
        <time>2019-05-31T14:36:24Z</time>
      </trkpt>
      <trkpt lat="43.0076" lon="0.1998">
        <ele>908</ele>
        <time>2019-05-31T14:36:42Z</time>
      </trkpt>
      <trkpt lat="43.00782" lon="0.19972">
        <ele>907</ele>
        <time>2019-05-31T14:37:01Z</time>
      </trkpt>
      <trkpt lat="43.00801" lon="0.19954">
        <ele>904</ele>
        <time>2019-05-31T14:37:22Z</time>
      </trkpt>
      <trkpt lat="43.00796" lon="0.1992">
        <ele>899</ele>
        <time>2019-05-31T14:38:18Z</time>
      </trkpt>
      <trkpt lat="43.00787" lon="0.19891">
        <ele>898</ele>
        <time>2019-05-31T14:38:42Z</time>
      </trkpt>
      <trkpt lat="43.00778" lon="0.1986">
        <ele>895</ele>
        <time>2019-05-31T14:38:59Z</time>
      </trkpt>
      <trkpt lat="43.00779" lon="0.19828">
        <ele>898</ele>
        <time>2019-05-31T14:39:17Z</time>
      </trkpt>
      <trkpt lat="43.0078" lon="0.19797">
        <ele>897</ele>
        <time>2019-05-31T14:39:36Z</time>
      </trkpt>
      <trkpt lat="43.00792" lon="0.19771">
        <ele>899</ele>
        <time>2019-05-31T14:40:10Z</time>
      </trkpt>
      <trkpt lat="43.00808" lon="0.19748">
        <ele>902</ele>
        <time>2019-05-31T14:40:30Z</time>
      </trkpt>
      <trkpt lat="43.00824" lon="0.19721">
        <ele>899</ele>
        <time>2019-05-31T14:40:50Z</time>
      </trkpt>
      <trkpt lat="43.0084" lon="0.19697">
        <ele>894</ele>
        <time>2019-05-31T14:41:09Z</time>
      </trkpt>
      <trkpt lat="43.00855" lon="0.19672">
        <ele>889</ele>
        <time>2019-05-31T14:41:26Z</time>
      </trkpt>
      <trkpt lat="43.00874" lon="0.19655">
        <ele>888</ele>
        <time>2019-05-31T14:41:44Z</time>
      </trkpt>
      <trkpt lat="43.00894" lon="0.19638">
        <ele>886</ele>
        <time>2019-05-31T14:42:04Z</time>
      </trkpt>
      <trkpt lat="43.00905" lon="0.19611">
        <ele>883</ele>
        <time>2019-05-31T14:43:05Z</time>
      </trkpt>
      <trkpt lat="43.00909" lon="0.19581">
        <ele>885</ele>
        <time>2019-05-31T14:43:26Z</time>
      </trkpt>
      <trkpt lat="43.00909" lon="0.1955">
        <ele>882</ele>
        <time>2019-05-31T14:43:41Z</time>
      </trkpt>
      <trkpt lat="43.00918" lon="0.19521">
        <ele>880</ele>
        <time>2019-05-31T14:44:02Z</time>
      </trkpt>
      <trkpt lat="43.00931" lon="0.19495">
        <ele>877</ele>
        <time>2019-05-31T14:44:27Z</time>
      </trkpt>
      <trkpt lat="43.00939" lon="0.19464">
        <ele>871</ele>
        <time>2019-05-31T14:45:54Z</time>
      </trkpt>
      <trkpt lat="43.00947" lon="0.19435">
        <ele>866</ele>
        <time>2019-05-31T14:46:14Z</time>
      </trkpt>
      <trkpt lat="43.00957" lon="0.19406">
        <ele>862</ele>
        <time>2019-05-31T14:46:37Z</time>
      </trkpt>
      <trkpt lat="43.00968" lon="0.19378">
        <ele>857</ele>
        <time>2019-05-31T14:46:55Z</time>
      </trkpt>
      <trkpt lat="43.00977" lon="0.19349">
        <ele>852</ele>
        <time>2019-05-31T14:47:15Z</time>
      </trkpt>
      <trkpt lat="43.00986" lon="0.1932">
        <ele>846</ele>
        <time>2019-05-31T14:47:37Z</time>
      </trkpt>
      <trkpt lat="43.01002" lon="0.19296">
        <ele>845</ele>
        <time>2019-05-31T14:47:56Z</time>
      </trkpt>
      <trkpt lat="43.01017" lon="0.19273">
        <ele>842</ele>
        <time>2019-05-31T14:48:12Z</time>
      </trkpt>
      <trkpt lat="43.01033" lon="0.19249">
        <ele>841</ele>
        <time>2019-05-31T14:48:29Z</time>
      </trkpt>
      <trkpt lat="43.01047" lon="0.19225">
        <ele>840</ele>
        <time>2019-05-31T14:48:47Z</time>
      </trkpt>
      <trkpt lat="43.01066" lon="0.19203">
        <ele>840</ele>
        <time>2019-05-31T14:49:06Z</time>
      </trkpt>
      <trkpt lat="43.01083" lon="0.19182">
        <ele>840</ele>
        <time>2019-05-31T14:49:40Z</time>
      </trkpt>
      <trkpt lat="43.01097" lon="0.19157">
        <ele>836</ele>
        <time>2019-05-31T14:49:56Z</time>
      </trkpt>
      <trkpt lat="43.01108" lon="0.1913">
        <ele>830</ele>
        <time>2019-05-31T14:50:13Z</time>
      </trkpt>
      <trkpt lat="43.01125" lon="0.19107">
        <ele>828</ele>
        <time>2019-05-31T14:50:33Z</time>
      </trkpt>
      <trkpt lat="43.0114" lon="0.19083">
        <ele>824</ele>
        <time>2019-05-31T14:50:53Z</time>
      </trkpt>
      <trkpt lat="43.01153" lon="0.19057">
        <ele>818</ele>
        <time>2019-05-31T14:51:10Z</time>
      </trkpt>
      <trkpt lat="43.01167" lon="0.19032">
        <ele>811</ele>
        <time>2019-05-31T14:51:28Z</time>
      </trkpt>
      <trkpt lat="43.01179" lon="0.19005">
        <ele>804</ele>
        <time>2019-05-31T14:51:46Z</time>
      </trkpt>
      <trkpt lat="43.01194" lon="0.18982">
        <ele>799</ele>
        <time>2019-05-31T14:52:06Z</time>
      </trkpt>
      <trkpt lat="43.01207" lon="0.18956">
        <ele>790</ele>
        <time>2019-05-31T14:52:31Z</time>
      </trkpt>
      <trkpt lat="43.01209" lon="0.18924">
        <ele>779</ele>
        <time>2019-05-31T14:52:59Z</time>
      </trkpt>
      <trkpt lat="43.0123" lon="0.18913">
        <ele>773</ele>
        <time>2019-05-31T14:53:28Z</time>
      </trkpt>
      <trkpt lat="43.01252" lon="0.18902">
        <ele>763</ele>
        <time>2019-05-31T14:54:17Z</time>
      </trkpt>
      <trkpt lat="43.01275" lon="0.18899">
        <ele>756</ele>
        <time>2019-05-31T14:54:47Z</time>
      </trkpt>
      <trkpt lat="43.01289" lon="0.18874">
        <ele>751</ele>
        <time>2019-05-31T14:55:23Z</time>
      </trkpt>
      <trkpt lat="43.01282" lon="0.18845">
        <ele>747</ele>
        <time>2019-05-31T14:55:43Z</time>
      </trkpt>
      <trkpt lat="43.01274" lon="0.18815">
        <ele>745</ele>
        <time>2019-05-31T14:55:59Z</time>
      </trkpt>
      <trkpt lat="43.01269" lon="0.18785">
        <ele>743</ele>
        <time>2019-05-31T14:56:21Z</time>
      </trkpt>
      <trkpt lat="43.01276" lon="0.18755">
        <ele>748</ele>
        <time>2019-05-31T14:56:41Z</time>
      </trkpt>
      <trkpt lat="43.01272" lon="0.18725">
        <ele>747</ele>
        <time>2019-05-31T14:56:57Z</time>
      </trkpt>
      <trkpt lat="43.01274" lon="0.18692">
        <ele>746</ele>
        <time>2019-05-31T14:57:20Z</time>
      </trkpt>
      <trkpt lat="43.01284" lon="0.18664">
        <ele>745</ele>
        <time>2019-05-31T14:57:38Z</time>
      </trkpt>
      <trkpt lat="43.01298" lon="0.18638">
        <ele>743</ele>
        <time>2019-05-31T14:57:58Z</time>
      </trkpt>
      <trkpt lat="43.0131" lon="0.18612">
        <ele>739</ele>
        <time>2019-05-31T14:58:16Z</time>
      </trkpt>
      <trkpt lat="43.01328" lon="0.18591">
        <ele>739</ele>
        <time>2019-05-31T14:58:33Z</time>
      </trkpt>
      <trkpt lat="43.01344" lon="0.18568">
        <ele>735</ele>
        <time>2019-05-31T14:58:52Z</time>
      </trkpt>
      <trkpt lat="43.01364" lon="0.1855">
        <ele>734</ele>
        <time>2019-05-31T14:59:09Z</time>
      </trkpt>
      <trkpt lat="43.0138" lon="0.18528">
        <ele>733</ele>
        <time>2019-05-31T14:59:29Z</time>
      </trkpt>
      <trkpt lat="43.01395" lon="0.18504">
        <ele>732</ele>
        <time>2019-05-31T14:59:46Z</time>
      </trkpt>
      <trkpt lat="43.0141" lon="0.18482">
        <ele>729</ele>
        <time>2019-05-31T15:00:06Z</time>
      </trkpt>
      <trkpt lat="43.01418" lon="0.18452">
        <ele>720</ele>
        <time>2019-05-31T15:00:25Z</time>
      </trkpt>
      <trkpt lat="43.01436" lon="0.18429">
        <ele>718</ele>
        <time>2019-05-31T15:00:48Z</time>
      </trkpt>
      <trkpt lat="43.01448" lon="0.18402">
        <ele>711</ele>
        <time>2019-05-31T15:01:07Z</time>
      </trkpt>
      <trkpt lat="43.01463" lon="0.18377">
        <ele>706</ele>
        <time>2019-05-31T15:01:26Z</time>
      </trkpt>
      <trkpt lat="43.01477" lon="0.18353">
        <ele>705</ele>
        <time>2019-05-31T15:01:58Z</time>
      </trkpt>
      <trkpt lat="43.0149" lon="0.18326">
        <ele>703</ele>
        <time>2019-05-31T15:02:18Z</time>
      </trkpt>
      <trkpt lat="43.01504" lon="0.18301">
        <ele>699</ele>
        <time>2019-05-31T15:02:36Z</time>
      </trkpt>
      <trkpt lat="43.01518" lon="0.18276">
        <ele>696</ele>
        <time>2019-05-31T15:02:57Z</time>
      </trkpt>
      <trkpt lat="43.01534" lon="0.18253">
        <ele>695</ele>
        <time>2019-05-31T15:03:14Z</time>
      </trkpt>
      <trkpt lat="43.01551" lon="0.18232">
        <ele>695</ele>
        <time>2019-05-31T15:03:31Z</time>
      </trkpt>
      <trkpt lat="43.01566" lon="0.18206">
        <ele>690</ele>
        <time>2019-05-31T15:03:50Z</time>
      </trkpt>
      <trkpt lat="43.01583" lon="0.18186">
        <ele>689</ele>
        <time>2019-05-31T15:04:09Z</time>
      </trkpt>
      <trkpt lat="43.01596" lon="0.18159">
        <ele>684</ele>
        <time>2019-05-31T15:04:28Z</time>
      </trkpt>
      <trkpt lat="43.01616" lon="0.18143">
        <ele>685</ele>
        <time>2019-05-31T15:04:45Z</time>
      </trkpt>
      <trkpt lat="43.01627" lon="0.18116">
        <ele>674</ele>
        <time>2019-05-31T15:05:00Z</time>
      </trkpt>
      <trkpt lat="43.01642" lon="0.18093">
        <ele>669</ele>
        <time>2019-05-31T15:05:19Z</time>
      </trkpt>
      <trkpt lat="43.01654" lon="0.18067">
        <ele>662</ele>
        <time>2019-05-31T15:05:41Z</time>
      </trkpt>
      <trkpt lat="43.01678" lon="0.18063">
        <ele>667</ele>
        <time>2019-05-31T15:06:01Z</time>
      </trkpt>
      <trkpt lat="43.01696" lon="0.18042">
        <ele>663</ele>
        <time>2019-05-31T15:06:22Z</time>
      </trkpt>
      <trkpt lat="43.01712" lon="0.18018">
        <ele>659</ele>
        <time>2019-05-31T15:06:45Z</time>
      </trkpt>
      <trkpt lat="43.01696" lon="0.17995">
        <ele>650</ele>
        <time>2019-05-31T15:07:07Z</time>
      </trkpt>
      <trkpt lat="43.01676" lon="0.17981">
        <ele>652</ele>
        <time>2019-05-31T15:07:28Z</time>
      </trkpt>
      <trkpt lat="43.0169" lon="0.17956">
        <ele>652</ele>
        <time>2019-05-31T15:07:59Z</time>
      </trkpt>
      <trkpt lat="43.01703" lon="0.17929">
        <ele>653</ele>
        <time>2019-05-31T15:08:16Z</time>
      </trkpt>
      <trkpt lat="43.01717" lon="0.17905">
        <ele>652</ele>
        <time>2019-05-31T15:08:35Z</time>
      </trkpt>
      <trkpt lat="43.01732" lon="0.1788">
        <ele>652</ele>
        <time>2019-05-31T15:08:58Z</time>
      </trkpt>
      <trkpt lat="43.01752" lon="0.17866">
        <ele>652</ele>
        <time>2019-05-31T15:09:19Z</time>
      </trkpt>
      <trkpt lat="43.01771" lon="0.1785">
        <ele>651</ele>
        <time>2019-05-31T15:09:36Z</time>
      </trkpt>
      <trkpt lat="43.01793" lon="0.17837">
        <ele>651</ele>
        <time>2019-05-31T15:09:57Z</time>
      </trkpt>
    </trkseg>
  </trk>
</gpx>